SU6561 / VP-BWG 7700 Squawk Report (1st of April, 2020)

Aircraft A319 Reg No. VP-BWG Age 16 years old
Model A319 Jet engines 2 First flight 21-11-03
Registered 21-01-14 Rollout 11-03 Delivered 10-12-03
Construction No. 2093 Line No. N/A Series 111
ADSHEX 400155 Airline name Rossiya Owner GECAS
Airfield based St. Petersburg-Pulkovo~St. Petersburg~RA First tracked N/A

Flight history for VP-BWG

Route Flight No Date Playback
Kazan (KZN) - Pulkovo (LED) SU6598 2020-05-30 18:02:00
Pulkovo (LED) - Kazan (KZN) SU6597 2020-05-30 16:18:00
Rostov-on-Don (ROV) - Pulkovo (LED) SU6372 2020-05-30 11:21:00
Pulkovo (LED) - Rostov-on-Don (ROV) SU6371 2020-05-30 07:57:00
Kazan (KZN) - Pulkovo (LED) SU6598 2020-05-29 17:49:00
Pulkovo (LED) - Kazan (KZN) SU6597 2020-05-29 16:19:00
Bolshoye Savino (PEE) - Pulkovo (LED) SU6582 2020-05-29 10:32:00
Pulkovo (LED) - Bolshoye Savino (PEE) SU6583 2020-05-29 06:43:00
Simferopol Intl (SIP) - Pulkovo (LED) SU6896 2020-05-28 19:25:00
Pulkovo (LED) - Simferopol Intl (SIP) SU6895 2020-05-28 15:34:00
Syktyvkar (SCW) - Pulkovo (LED) SU6588 2020-05-28 09:35:00
Pulkovo (LED) - Syktyvkar (SCW) SU6589 2020-05-28 08:13:00
Ufa (UFA) - Pulkovo (LED) SU6414 2020-05-27 19:17:00
Pulkovo (LED) - Ufa (UFA) SU6413 2020-05-27 15:38:00
Rostov-on-Don (ROV) - Pulkovo (LED) SU6372 2020-05-27 11:08:00
Pulkovo (LED) - Rostov-on-Don (ROV) SU6371 2020-05-27 09:10:00
Syktyvkar (SCW) - Pulkovo (LED) SU6588 2020-05-26 09:33:00
Pulkovo (LED) - Syktyvkar (SCW) SU6589 2020-05-26 08:06:00
Bolshoye Savino (PEE) - Pulkovo (LED) SU6582 2020-05-23 17:17:00
Pulkovo (LED) - Bolshoye Savino (PEE) SU6583 2020-05-23 13:47:00
Time Lat Lon Altitude Heading Speed Vertical Rate
2020-04-01 15:10:35 GMT 44.017914 39.061443 18,025 168 330 -1472
2020-04-01 15:10:27 GMT 44.030914 39.057865 18,225 168 329 -1472
2020-04-01 15:10:16 GMT 44.046238 39.053650 18,500 168 330 -1472
2020-04-01 15:10:05 GMT 44.061951 39.049305 18,750 168 331 -1408
2020-04-01 15:09:56 GMT 44.077286 39.045029 18,975 168 333 -1472
2020-04-01 15:09:45 GMT 44.093117 39.040569 19,250 168 336 -1536
2020-04-01 15:09:35 GMT 44.108337 39.036125 19,500 167 336 -1536
2020-04-01 15:09:25 GMT 44.124493 39.031483 19,775 168 335 -1280
2020-04-01 15:09:13 GMT 44.140594 39.029251 20,025 182 331 -1920
2020-04-01 15:09:04 GMT 44.155792 39.031296 20,300 189 329 -1920
2020-04-01 15:08:54 GMT 44.170990 39.034744 20,675 190 331 -1920
2020-04-01 15:08:44 GMT 44.186966 39.038414 21,025 190 332 -2048
2020-04-01 15:08:33 GMT 44.202187 39.041927 21,375 190 333 -2048
2020-04-01 15:08:25 GMT 44.218201 39.045612 21,725 190 335 -2112
2020-04-01 15:08:13 GMT 44.233795 39.049164 22,100 190 336 -2112
2020-04-01 15:08:02 GMT 44.249405 39.052670 22,450 190 337 -2048
2020-04-01 15:07:52 GMT 44.265408 39.056263 22,800 190 339 -2112
2020-04-01 15:07:44 GMT 44.277695 39.059078 23,075 190 339 -2112
2020-04-01 15:07:41 GMT 44.281513 39.059948 23,150 190 340 -2112
2020-04-01 15:07:34 GMT 44.294083 39.062828 23,450 190 341 -2112
2020-04-01 15:07:21 GMT 44.313950 39.067448 23,900 190 343 -2112
2020-04-01 15:07:13 GMT 44.326298 39.070263 24,175 190 344 -2176
2020-04-01 15:07:10 GMT 44.329742 39.071068 24,250 190 344 -2176
2020-04-01 15:07:01 GMT 44.346039 39.074772 24,625 190 346 -2240
2020-04-01 15:06:50 GMT 44.362518 39.078434 25,025 190 347 -2240
2020-04-01 15:06:43 GMT 44.374741 39.081181 25,300 190 348 -2240
2020-04-01 15:06:39 GMT 44.378807 39.082054 25,400 190 349 -2240
2020-04-01 15:06:32 GMT 44.390446 39.084732 25,675 190 350 -2240
2020-04-01 15:06:29 GMT 44.397148 39.086342 25,825 190 350 -2240
2020-04-01 15:06:22 GMT 44.407150 39.088703 26,075 190 351 -2240
2020-04-01 15:06:19 GMT 44.411255 39.089622 26,175 190 352 -2240
2020-04-01 15:06:12 GMT 44.423172 39.092438 26,450 190 353 -2240
2020-04-01 15:06:08 GMT 44.428574 39.093739 26,575 190 354 -2240
2020-04-01 15:05:59 GMT 44.445282 39.097530 26,950 190 356 -2304
2020-04-01 15:05:52 GMT 44.456543 39.100079 27,225 190 357 -2304
2020-04-01 15:05:48 GMT 44.461483 39.101212 27,325 190 358 -2304
2020-04-01 15:05:41 GMT 44.473389 39.103939 27,625 190 359 -2304
2020-04-01 15:05:37 GMT 44.479614 39.105377 27,750 190 360 -2304
2020-04-01 15:05:30 GMT 44.490509 39.107929 28,025 190 362 -2304
2020-04-01 15:05:27 GMT 44.495560 39.109116 28,125 190 362 -2304
2020-04-01 15:05:20 GMT 44.507198 39.111797 28,400 190 364 -2304
2020-04-01 15:05:17 GMT 44.513763 39.113289 28,550 190 365 -2368
2020-04-01 15:05:10 GMT 44.524563 39.115814 28,800 190 367 -2368
2020-04-01 15:05:06 GMT 44.530613 39.117157 28,950 190 368 -2368
2020-04-01 15:05:00 GMT 44.540714 39.119499 29,200 190 370 -2368
2020-04-01 15:04:56 GMT 44.547653 39.121109 29,350 190 371 -2432
2020-04-01 15:04:50 GMT 44.558174 39.123520 31,000 190 386 -2496
2020-04-01 15:04:47 GMT 44.565216 39.125191 29,775 190 374 -2432
2020-04-01 15:04:40 GMT 44.575863 39.127674 30,025 190 376 -2368
2020-04-01 15:04:36 GMT 44.582565 39.129280 30,175 190 377 -2432
2020-04-01 15:04:29 GMT 44.593414 39.131828 30,425 190 379 -2432
2020-04-01 15:04:26 GMT 44.600098 39.133366 30,575 190 381 -2368
2020-04-01 15:04:20 GMT 44.611771 39.136047 30,850 190 383 -2496
2020-04-01 15:04:16 GMT 44.618317 39.137589 31,000 190 384 -2496
2020-04-01 15:04:09 GMT 44.629070 39.140068 31,275 190 386 -2496
2020-04-01 15:04:05 GMT 44.636719 39.141869 31,450 190 388 -2560
2020-04-01 15:03:58 GMT 44.647972 39.144489 31,725 190 390 -2560
2020-04-01 15:03:54 GMT 44.655094 39.146095 31,875 190 391 -2560
2020-04-01 15:03:49 GMT 44.665478 39.148506 32,175 190 393 -2496
2020-04-01 15:03:44 GMT 44.673111 39.150303 32,300 190 395 -2432
2020-04-01 15:03:39 GMT 44.684376 39.152927 32,550 190 398 -2432
2020-04-01 15:03:35 GMT 44.691826 39.154671 32,700 190 399 -2496
2020-04-01 15:03:29 GMT 44.702579 39.157150 33,425 190 401 -3072
2020-04-01 15:03:22 GMT 44.718124 39.160767 33,200 190 401 -3264
2020-04-01 15:03:17 GMT 44.722824 39.161877 33,575 190 402 -2880
2020-04-01 15:03:14 GMT 44.729233 39.163383 33,750 190 402 -2752
2020-04-01 15:03:10 GMT 44.738434 39.165474 33,975 190 422 -1536
2020-04-01 15:03:07 GMT 44.742874 39.166454 34,050 190 406 -2176
2020-04-01 15:03:04 GMT 44.748291 39.167732 34,175 190 406 -2176
2020-04-01 15:02:56 GMT 44.761887 39.170815 34,450 190 408 -2304
2020-04-01 15:02:53 GMT 44.767548 39.172146 34,575 190 409 -2304
2020-04-01 15:02:47 GMT 44.781483 39.175369 34,850 190 412 -2240
2020-04-01 15:02:43 GMT 44.786270 39.176525 34,925 190 413 -2176
2020-04-01 15:02:36 GMT 44.797989 39.179207 35,425 190 422 -1536
2020-04-01 15:02:33 GMT 44.806065 39.181065 35,300 190 417 -2112
2020-04-01 15:02:25 GMT 44.820694 39.184441 35,575 190 421 -2112
2020-04-01 15:02:22 GMT 44.825615 39.185555 35,625 190 423 -2112
2020-04-01 15:02:15 GMT 44.840790 39.189018 35,925 190 424 -2176
2020-04-01 15:02:12 GMT 44.845913 39.190174 36,025 190 423 -1920
2020-04-01 15:02:05 GMT 44.860016 39.193459 36,275 190 422 -1536
2020-04-01 15:02:02 GMT 44.867020 39.195034 36,350 190 420 -1280
2020-04-01 15:01:55 GMT 44.880733 39.198147 36,475 190 418 -960
2020-04-01 15:01:51 GMT 44.887482 39.199741 36,525 190 417 -960
2020-04-01 15:01:47 GMT 44.900070 39.202618 36,625 190 417 -960
2020-04-01 15:01:40 GMT 44.909084 39.204712 36,700 190 416 -1024
2020-04-01 15:01:34 GMT 44.919846 39.207195 36,800 190 417 -1024
2020-04-01 15:01:26 GMT 44.933899 39.210533 36,900 190 417 -704
2020-04-01 15:01:23 GMT 44.939529 39.211880 36,950 190 418 -512
2020-04-01 15:01:19 GMT 44.948227 39.213932 36,975 190 418 -192
2020-04-01 15:01:16 GMT 44.952888 39.215096 36,975 190 418 0
2020-04-01 15:01:11 GMT 44.962433 39.217304 36,975 190 418 0
2020-04-01 15:01:06 GMT 44.972160 39.219650 36,975 190 418 0
2020-04-01 15:01:03 GMT 44.979610 39.221325 36,975 190 418 0
2020-04-01 15:00:57 GMT 44.987915 39.223286 36,975 190 418 0
2020-04-01 15:00:54 GMT 44.993530 39.224674 36,975 190 418 0
2020-04-01 15:00:51 GMT 44.999626 39.226082 37,000 190 418 -64
2020-04-01 15:00:48 GMT 45.007370 39.227928 36,975 190 418 -64
2020-04-01 15:00:42 GMT 45.018997 39.230740 37,000 190 418 0
2020-04-01 15:00:37 GMT 45.027466 39.232716 37,000 190 418 -64
2020-04-01 15:00:34 GMT 45.032635 39.233986 37,000 190 418 0
2020-04-01 15:00:30 GMT 45.039894 39.235661 37,000 190 418 0
2020-04-01 15:00:25 GMT 45.050415 39.238140 37,000 190 419 0
2020-04-01 15:00:21 GMT 45.059170 39.240215 37,000 190 419 0
2020-04-01 15:00:17 GMT 45.066059 39.241825 37,000 190 419 0
2020-04-01 15:00:13 GMT 45.072948 39.243431 37,000 190 419 0
2020-04-01 15:00:10 GMT 45.078300 39.244705 37,000 190 419 0
2020-04-01 15:00:06 GMT 45.085983 39.246513 37,000 190 419 0
2020-04-01 15:00:03 GMT 45.092010 39.247936 37,000 190 419 0
2020-04-01 14:59:59 GMT 45.099342 39.249660 37,000 190 419 0
2020-04-01 14:59:53 GMT 45.110962 39.252384 37,000 190 419 0
2020-04-01 14:59:50 GMT 45.118607 39.254215 37,000 190 420 0
2020-04-01 14:59:43 GMT 45.130508 39.257027 37,000 190 420 -64
2020-04-01 14:59:36 GMT 45.150177 39.261654 37,025 190 420 -64
2020-04-01 14:59:32 GMT 45.150177 39.261654 37,000 190 420 -128
2020-04-01 14:59:29 GMT 45.159439 39.263893 37,000 190 420 -64
2020-04-01 14:59:25 GMT 45.165119 39.265205 37,000 190 420 0
2020-04-01 14:59:22 GMT 45.170288 39.266476 37,000 190 420 0
2020-04-01 14:59:17 GMT 45.179317 39.268620 37,025 190 420 0
2020-04-01 14:59:14 GMT 45.184982 39.269978 37,025 190 421 0
2020-04-01 14:59:11 GMT 45.191711 39.271545 37,025 190 421 0
2020-04-01 14:59:05 GMT 45.205063 39.274715 37,025 190 421 0
2020-04-01 14:59:02 GMT 45.209015 39.275665 37,025 190 422 0
2020-04-01 14:58:57 GMT 45.219589 39.278149 37,025 190 422 0
2020-04-01 14:58:51 GMT 45.229980 39.280502 37,025 190 422 0
2020-04-01 14:58:44 GMT 45.244675 39.283905 37,025 190 423 0
2020-04-01 14:58:41 GMT 45.249565 39.285034 37,025 190 423 0
2020-04-01 14:58:37 GMT 45.259323 39.287308 37,025 190 423 0
2020-04-01 14:58:31 GMT 45.268021 39.289333 37,025 190 423 0
2020-04-01 14:58:26 GMT 45.279007 39.291950 37,025 190 423 0
2020-04-01 14:58:23 GMT 45.284454 39.293190 37,025 190 423 0
2020-04-01 14:58:16 GMT 45.300064 39.296921 37,025 190 423 0
2020-04-01 14:58:11 GMT 45.307617 39.298752 37,025 190 423 64
2020-04-01 14:58:03 GMT 45.324329 39.302719 37,000 190 423 0
2020-04-01 14:58:00 GMT 45.327217 39.303455 37,000 190 424 0
2020-04-01 14:57:53 GMT 45.342903 39.307205 37,000 190 424 0
2020-04-01 14:57:50 GMT 45.347443 39.308365 37,000 190 425 0
2020-04-01 14:57:44 GMT 45.360313 39.311493 37,000 190 424 0
2020-04-01 14:57:40 GMT 45.366806 39.313072 37,000 190 424 0
2020-04-01 14:57:30 GMT 45.386719 39.317844 37,000 190 424 0
2020-04-01 14:57:23 GMT 45.403095 39.321743 37,000 190 425 64
2020-04-01 14:57:20 GMT 45.406216 39.322414 37,000 190 425 64
2020-04-01 14:57:12 GMT 45.426373 39.327168 37,000 190 425 -64
2020-04-01 14:57:09 GMT 45.426373 39.327168 37,000 190 425 -64
2020-04-01 14:57:03 GMT 45.440708 39.330585 37,000 190 425 0
2020-04-01 14:56:59 GMT 45.447693 39.332195 37,000 190 424 64
2020-04-01 14:56:49 GMT 45.466873 39.336815 36,975 190 424 64
2020-04-01 14:56:42 GMT 45.486923 39.341648 36,975 190 425 0
2020-04-01 14:56:38 GMT 45.486923 39.341648 36,975 190 425 0
2020-04-01 14:56:29 GMT 45.507793 39.346664 37,000 190 425 -64
2020-04-01 14:56:18 GMT 45.526474 39.351196 37,000 190 424 0
2020-04-01 14:56:10 GMT 45.542770 39.355057 37,000 190 426 -64
2020-04-01 14:55:57 GMT 45.566437 39.360664 37,000 190 425 0
2020-04-01 14:55:49 GMT 45.583694 39.364750 37,000 190 425 -64
2020-04-01 14:55:46 GMT 45.587769 39.365688 37,000 190 425 -64
2020-04-01 14:55:39 GMT 45.601959 39.369038 37,000 190 426 -64
2020-04-01 14:55:36 GMT 45.611893 39.371384 37,000 190 426 -64
2020-04-01 14:55:27 GMT 45.625801 39.374657 37,000 190 426 0
2020-04-01 14:55:17 GMT 45.645821 39.379326 37,000 190 426 0
2020-04-01 14:55:06 GMT 45.667233 39.384407 37,000 190 426 0
2020-04-01 14:54:56 GMT 45.686737 39.389202 37,000 190 427 0
2020-04-01 14:54:46 GMT 45.707455 39.394226 37,000 190 427 0
2020-04-01 14:54:37 GMT 45.723843 39.398209 37,000 190 427 0
2020-04-01 14:54:34 GMT 45.727615 39.399117 37,000 190 427 0
2020-04-01 14:54:28 GMT 45.741486 39.402332 37,000 190 428 0
2020-04-01 14:54:25 GMT 45.748608 39.403976 37,000 190 428 0
2020-04-01 14:54:17 GMT 45.761215 39.406818 37,000 189 428 0
2020-04-01 14:54:14 GMT 45.767075 39.408092 37,000 189 429 0
2020-04-01 14:54:06 GMT 45.783920 39.411777 37,000 189 428 -64
2020-04-01 14:54:03 GMT 45.788315 39.412766 37,000 189 429 0
2020-04-01 14:53:54 GMT 45.808319 39.417740 37,025 193 427 0
2020-04-01 14:53:45 GMT 45.823601 39.423477 37,025 198 424 0
2020-04-01 14:53:42 GMT 45.829102 39.426044 37,025 200 423 0
2020-04-01 14:53:37 GMT 45.839539 39.431740 37,000 203 421 0
2020-04-01 14:53:33 GMT 45.847343 39.436386 37,000 203 422 0
2020-04-01 14:53:26 GMT 45.858215 39.442993 37,000 203 422 0
2020-04-01 14:53:23 GMT 45.863434 39.446209 37,000 203 422 0
2020-04-01 14:53:20 GMT 45.868469 39.449226 37,000 203 422 0
2020-04-01 14:53:14 GMT 45.880024 39.456299 37,000 203 422 0
2020-04-01 14:53:11 GMT 45.884911 39.459251 37,000 203 422 0
2020-04-01 14:53:05 GMT 45.903671 39.470661 37,000 203 422 -64
2020-04-01 14:53:01 GMT 45.903671 39.470661 37,025 203 422 0
2020-04-01 14:52:56 GMT 45.913239 39.476421 37,025 203 422 0
2020-04-01 14:52:51 GMT 45.922108 39.481842 37,025 204 422 0
2020-04-01 14:52:45 GMT 45.931091 39.487335 37,025 204 422 0
2020-04-01 14:52:41 GMT 45.941803 39.493839 37,025 204 422 0
2020-04-01 14:52:36 GMT 45.953659 39.501141 37,025 204 422 0
2020-04-01 14:52:33 GMT 45.953659 39.501141 37,025 204 423 0
2020-04-01 14:52:30 GMT 45.960049 39.505051 37,025 204 423 0
2020-04-01 14:52:27 GMT 45.964329 39.507660 37,025 204 422 -64
2020-04-01 14:52:24 GMT 45.968719 39.510387 37,025 204 422 -64
2020-04-01 14:52:21 GMT 45.974854 39.514206 37,025 204 423 0
2020-04-01 14:52:17 GMT 45.983185 39.519333 37,025 204 423 0
2020-04-01 14:52:12 GMT 45.993347 39.525524 37,025 204 423 0
2020-04-01 14:52:05 GMT 46.005203 39.532829 37,025 204 423 64
2020-04-01 14:52:02 GMT 46.008694 39.534988 37,025 204 423 64
2020-04-01 14:51:59 GMT 46.016693 39.539928 37,000 204 423 0
2020-04-01 14:51:54 GMT 46.028366 39.547096 37,000 204 423 0
2020-04-01 14:51:51 GMT 46.034763 39.551056 37,000 204 423 0
2020-04-01 14:51:48 GMT 46.034763 39.551056 37,025 204 423 -64
2020-04-01 14:51:44 GMT 46.041138 39.554935 37,025 204 423 0
2020-04-01 14:51:41 GMT 46.048637 39.559502 37,025 203 423 0
2020-04-01 14:51:37 GMT 46.056473 39.564247 37,025 203 423 0
2020-04-01 14:51:34 GMT 46.059948 39.566368 37,025 204 422 0
2020-04-01 14:51:29 GMT 46.067535 39.571037 37,025 204 422 0
2020-04-01 14:51:25 GMT 46.075333 39.575768 37,025 203 422 0
2020-04-01 14:51:21 GMT 46.082245 39.580032 37,025 203 422 0
2020-04-01 14:51:17 GMT 46.092453 39.586220 37,000 203 422 64
2020-04-01 14:51:14 GMT 46.096573 39.588764 37,000 203 422 64
2020-04-01 14:51:10 GMT 46.103577 39.593052 37,000 203 422 64
2020-04-01 14:51:03 GMT 46.114647 39.599808 37,000 204 423 64
2020-04-01 14:50:58 GMT 46.127075 39.607361 36,975 204 423 0
2020-04-01 14:50:53 GMT 46.133549 39.611343 37,000 204 422 64
2020-04-01 14:50:49 GMT 46.140106 39.615360 36,975 204 422 0
2020-04-01 14:50:42 GMT 46.152145 39.622726 36,975 204 422 0
2020-04-01 14:50:38 GMT 46.159988 39.627548 36,975 204 423 0
2020-04-01 14:50:32 GMT 46.177212 39.638191 36,975 204 423 0
2020-04-01 14:50:28 GMT 46.177212 39.638191 36,975 204 423 0
2020-04-01 14:50:23 GMT 46.188896 39.645401 36,975 204 422 0
2020-04-01 14:50:18 GMT 46.195953 39.649792 36,975 204 422 64
2020-04-01 14:50:12 GMT 46.206635 39.656387 36,975 204 422 64
2020-04-01 14:50:09 GMT 46.211197 39.659237 36,975 204 422 0
2020-04-01 14:50:05 GMT 46.218521 39.663792 36,975 204 422 64
2020-04-01 14:50:02 GMT 46.225628 39.668198 36,975 204 422 0
2020-04-01 14:49:57 GMT 46.233948 39.673374 36,975 204 422 0
2020-04-01 14:49:52 GMT 46.243057 39.679066 36,975 204 422 -64
2020-04-01 14:49:49 GMT 46.247272 39.681656 36,975 204 422 -64
2020-04-01 14:49:41 GMT 46.261688 39.690590 37,000 204 421 -64
2020-04-01 14:49:38 GMT 46.266312 39.693470 37,000 204 421 -128
2020-04-01 14:49:32 GMT 46.279999 39.701981 37,000 204 421 -64
2020-04-01 14:49:29 GMT 46.284142 39.704521 37,000 204 421 -64
2020-04-01 14:49:21 GMT 46.299591 39.714104 37,000 204 421 0
2020-04-01 14:49:15 GMT 46.311584 39.721470 37,000 204 421 64
2020-04-01 14:49:11 GMT 46.316498 39.724503 37,000 204 421 64
2020-04-01 14:49:08 GMT 46.325993 39.730339 37,000 204 422 0
2020-04-01 14:48:58 GMT 46.339325 39.738621 37,000 204 421 0
2020-04-01 14:48:55 GMT 46.343765 39.741367 37,000 204 422 0
2020-04-01 14:48:50 GMT 46.355137 39.748466 37,000 204 422 0
2020-04-01 14:48:45 GMT 46.363564 39.753685 37,000 204 422 0
2020-04-01 14:48:40 GMT 46.370918 39.758286 37,000 204 422 0
2020-04-01 14:48:36 GMT 46.381111 39.764603 37,000 204 422 0
2020-04-01 14:48:29 GMT 46.391785 39.771244 37,000 204 422 0
2020-04-01 14:48:25 GMT 46.398151 39.775177 37,000 204 422 0
2020-04-01 14:48:20 GMT 46.407944 39.781227 37,000 203 422 64
2020-04-01 14:48:15 GMT 46.416916 39.786720 37,000 203 422 64
2020-04-01 14:48:10 GMT 46.425800 39.792137 36,975 203 422 64
2020-04-01 14:48:06 GMT 46.431202 39.795502 36,975 203 422 64
2020-04-01 14:47:59 GMT 46.444843 39.803879 36,975 204 422 -64
2020-04-01 14:47:55 GMT 46.454681 39.809963 36,975 204 422 0
2020-04-01 14:47:48 GMT 46.465931 39.816856 36,975 204 423 0
2020-04-01 14:47:44 GMT 46.472305 39.820816 36,975 204 424 0
2020-04-01 14:47:39 GMT 46.480686 39.826057 36,975 204 424 0
2020-04-01 14:47:34 GMT 46.490929 39.832375 36,975 204 423 0
2020-04-01 14:47:29 GMT 46.498901 39.837433 37,000 204 423 0
2020-04-01 14:47:24 GMT 46.510254 39.844463 37,000 204 423 0
2020-04-01 14:47:16 GMT 46.522476 39.852100 37,000 204 423 0
2020-04-01 14:47:12 GMT 46.529194 39.856339 37,000 204 424 0
2020-04-01 14:47:09 GMT 46.535934 39.860607 37,000 204 424 0
2020-04-01 14:47:03 GMT 46.545906 39.866844 37,000 204 423 -64
2020-04-01 14:46:56 GMT 46.559780 39.875496 37,000 204 423 -64
2020-04-01 14:46:53 GMT 46.564247 39.878311 37,000 204 424 -64
2020-04-01 14:46:48 GMT 46.572464 39.883453 37,000 204 424 -64
2020-04-01 14:46:43 GMT 46.583817 39.890553 37,000 204 424 0
2020-04-01 14:46:35 GMT 46.596771 39.898659 37,000 204 424 0
2020-04-01 14:46:32 GMT 46.601624 39.901741 37,000 204 424 64
2020-04-01 14:46:28 GMT 46.609264 39.906601 37,000 204 425 0
2020-04-01 14:46:25 GMT 46.615364 39.910446 37,000 204 425 0
2020-04-01 14:46:21 GMT 46.621693 39.914429 37,025 204 425 -64
2020-04-01 14:46:18 GMT 46.628025 39.918411 37,025 204 425 -64
2020-04-01 14:46:14 GMT 46.634216 39.922306 37,025 204 425 -64
2020-04-01 14:46:10 GMT 46.640640 39.926239 37,025 204 425 -64
2020-04-01 14:46:07 GMT 46.646275 39.929741 37,025 204 425 0
2020-04-01 14:46:04 GMT 46.651672 39.933105 37,025 204 425 0
2020-04-01 14:46:01 GMT 46.658615 39.937447 37,025 204 425 0
2020-04-01 14:45:57 GMT 46.664707 39.941208 37,025 204 425 0
2020-04-01 14:45:53 GMT 46.671364 39.945396 37,025 204 425 0
2020-04-01 14:45:50 GMT 46.677063 39.948971 37,025 204 425 0
2020-04-01 14:45:47 GMT 46.682831 39.952652 37,000 204 425 0
2020-04-01 14:45:44 GMT 46.689697 39.956940 37,000 204 425 0
2020-04-01 14:45:37 GMT 46.701530 39.964348 37,000 204 425 0
2020-04-01 14:45:31 GMT 46.713634 39.971970 37,000 204 425 0
2020-04-01 14:45:27 GMT 46.720337 39.976227 37,000 204 426 0
2020-04-01 14:45:23 GMT 46.725784 39.979591 37,025 204 427 0
2020-04-01 14:45:20 GMT 46.732178 39.983669 37,025 204 427 0
2020-04-01 14:45:16 GMT 46.738907 39.987888 37,025 204 427 0
2020-04-01 14:45:12 GMT 46.745956 39.992310 37,025 204 427 0
2020-04-01 14:45:09 GMT 46.751175 39.995663 37,025 204 427 0
2020-04-01 14:45:06 GMT 46.756989 39.999344 37,025 204 426 64
2020-04-01 14:45:02 GMT 46.764221 40.003899 37,025 204 426 0
2020-04-01 14:44:59 GMT 46.769257 40.007114 37,000 204 426 0
2020-04-01 14:44:55 GMT 46.775574 40.011135 37,000 204 426 0
2020-04-01 14:44:50 GMT 46.788166 40.019142 37,000 204 426 0
2020-04-01 14:44:45 GMT 46.794125 40.022919 37,000 204 427 0
2020-04-01 14:44:39 GMT 46.806152 40.030563 37,000 204 427 0
2020-04-01 14:44:36 GMT 46.812744 40.034729 37,025 204 427 0
2020-04-01 14:44:31 GMT 46.819565 40.039001 37,025 204 427 -64
2020-04-01 14:44:28 GMT 46.825268 40.042557 37,025 204 427 -64
2020-04-01 14:44:25 GMT 46.830780 40.046036 37,025 204 426 -64
2020-04-01 14:44:19 GMT 46.842957 40.053673 37,025 204 427 -64
2020-04-01 14:44:15 GMT 46.849274 40.057693 37,025 204 427 0
2020-04-01 14:44:11 GMT 46.856735 40.062317 37,025 204 427 0
2020-04-01 14:44:08 GMT 46.862789 40.066109 37,025 204 427 0
2020-04-01 14:44:05 GMT 46.867352 40.068970 37,025 204 427 0
2020-04-01 14:43:58 GMT 46.880127 40.076889 37,025 204 427 64
2020-04-01 14:43:54 GMT 46.886391 40.080799 37,025 204 426 64
2020-04-01 14:43:49 GMT 46.897018 40.087463 37,025 204 426 64
2020-04-01 14:43:45 GMT 46.904617 40.092270 37,000 204 427 64
2020-04-01 14:43:38 GMT 46.919128 40.101334 37,000 204 427 64
2020-04-01 14:43:34 GMT 46.923843 40.104286 37,000 204 428 0
2020-04-01 14:43:28 GMT 46.934990 40.111366 37,000 204 427 0
2020-04-01 14:43:24 GMT 46.942066 40.115871 37,000 204 427 0
2020-04-01 14:43:18 GMT 46.952911 40.122845 37,000 204 427 0
2020-04-01 14:43:14 GMT 46.960373 40.127632 37,000 204 427 0
2020-04-01 14:43:07 GMT 46.971302 40.134678 37,000 204 427 0
2020-04-01 14:43:04 GMT 46.978378 40.139183 37,000 204 427 0
2020-04-01 14:42:58 GMT 46.990356 40.146927 37,000 204 427 0
2020-04-01 14:42:54 GMT 46.997406 40.151459 37,000 204 426 0
2020-04-01 14:42:47 GMT 47.008942 40.158943 37,000 204 426 0
2020-04-01 14:42:43 GMT 47.015339 40.163059 37,000 204 425 0
2020-04-01 14:42:39 GMT 47.023178 40.168076 37,000 204 426 64
2020-04-01 14:42:36 GMT 47.027344 40.170753 37,000 204 426 0
2020-04-01 14:42:33 GMT 47.033913 40.174961 37,000 204 425 64
2020-04-01 14:42:26 GMT 47.048904 40.184536 36,975 204 425 0
2020-04-01 14:42:22 GMT 47.052673 40.187000 37,000 204 425 0
2020-04-01 14:42:18 GMT 47.059982 40.191696 37,000 204 425 -64
2020-04-01 14:42:15 GMT 47.065750 40.195335 37,000 204 425 0
2020-04-01 14:42:12 GMT 47.070602 40.198494 37,000 204 425 0
2020-04-01 14:42:06 GMT 47.082981 40.206367 37,000 204 425 0
2020-04-01 14:42:02 GMT 47.089554 40.210579 37,000 204 425 64
2020-04-01 14:41:56 GMT 47.102066 40.218624 37,000 204 425 0
2020-04-01 14:41:52 GMT 47.107544 40.222115 36,975 204 425 0
2020-04-01 14:41:45 GMT 47.121712 40.231159 36,975 204 426 0
2020-04-01 14:41:42 GMT 47.126312 40.234062 36,975 204 426 0
2020-04-01 14:41:37 GMT 47.133545 40.238663 36,975 204 425 -64
2020-04-01 14:41:32 GMT 47.144474 40.245598 37,000 204 425 -64
2020-04-01 14:41:27 GMT 47.152679 40.250816 37,000 204 426 -64
2020-04-01 14:41:22 GMT 47.162678 40.257145 37,000 204 425 -64
2020-04-01 14:41:15 GMT 47.176037 40.265739 37,000 204 425 0
2020-04-01 14:41:11 GMT 47.181702 40.269356 37,000 204 425 0
2020-04-01 14:41:06 GMT 47.189724 40.274540 37,000 204 426 -64
2020-04-01 14:41:01 GMT 47.199966 40.281162 37,025 204 425 -64
2020-04-01 14:40:57 GMT 47.207180 40.285877 37,025 205 426 -64
2020-04-01 14:40:54 GMT 47.213280 40.289894 37,025 205 426 0
2020-04-01 14:40:51 GMT 47.217865 40.292908 37,025 205 426 0
2020-04-01 14:40:46 GMT 47.226219 40.298344 37,025 204 425 0
2020-04-01 14:40:43 GMT 47.232056 40.302040 37,025 203 426 0
2020-04-01 14:40:40 GMT 47.236633 40.304855 37,025 203 426 64
2020-04-01 14:40:36 GMT 47.244095 40.309319 37,025 202 427 64
2020-04-01 14:40:31 GMT 47.254898 40.315388 37,000 201 428 0
2020-04-01 14:40:26 GMT 47.263042 40.319756 37,000 200 427 0
2020-04-01 14:40:20 GMT 47.274582 40.325523 37,000 198 428 0
2020-04-01 14:40:15 GMT 47.282684 40.329369 37,000 198 429 64
2020-04-01 14:40:10 GMT 47.293255 40.333981 37,000 196 430 0
2020-04-01 14:40:05 GMT 47.302612 40.337852 37,000 196 430 0
2020-04-01 14:40:00 GMT 47.313309 40.341934 37,000 194 431 0
2020-04-01 14:39:55 GMT 47.321869 40.344887 37,000 193 432 -64
2020-04-01 14:39:52 GMT 47.329651 40.347496 37,025 193 432 -64
2020-04-01 14:39:49 GMT 47.333477 40.348629 37,025 192 432 -64
2020-04-01 14:39:45 GMT 47.341530 40.350952 37,025 191 433 -64
2020-04-01 14:39:40 GMT 47.353455 40.354088 37,025 190 434 0
2020-04-01 14:39:35 GMT 47.362061 40.356022 37,025 189 434 64
2020-04-01 14:39:29 GMT 47.374023 40.358418 37,025 188 435 64
2020-04-01 14:39:24 GMT 47.382637 40.359825 37,025 186 436 0
2020-04-01 14:39:19 GMT 47.394276 40.361446 37,000 185 437 0
2020-04-01 14:39:14 GMT 47.402618 40.362259 37,025 184 437 0
2020-04-01 14:39:08 GMT 47.414665 40.363136 37,025 183 439 -64
2020-04-01 14:39:04 GMT 47.423370 40.363560 37,025 182 439 0
2020-04-01 14:38:58 GMT 47.435852 40.363907 37,025 182 439 0
2020-04-01 14:38:54 GMT 47.444271 40.364193 37,025 182 439 0
2020-04-01 14:38:49 GMT 47.455536 40.364456 37,025 182 439 0
2020-04-01 14:38:43 GMT 47.465408 40.364754 37,025 182 439 0
2020-04-01 14:38:38 GMT 47.477051 40.365143 37,025 182 439 0
2020-04-01 14:38:33 GMT 47.485794 40.365417 37,025 182 439 64
2020-04-01 14:38:28 GMT 47.497017 40.365742 37,025 182 439 64
2020-04-01 14:38:22 GMT 47.507904 40.366104 37,000 182 439 64
2020-04-01 14:38:18 GMT 47.517838 40.366447 37,000 182 439 64
2020-04-01 14:38:13 GMT 47.527130 40.366791 37,000 182 439 64
2020-04-01 14:38:07 GMT 47.539005 40.367222 37,000 182 439 0
2020-04-01 14:38:01 GMT 47.550247 40.367615 37,000 182 439 0
2020-04-01 14:37:57 GMT 47.558990 40.367889 37,000 182 439 0
2020-04-01 14:37:53 GMT 47.568283 40.368164 37,000 182 439 0
2020-04-01 14:37:47 GMT 47.580345 40.368629 37,000 182 438 64
2020-04-01 14:37:42 GMT 47.589340 40.368919 37,000 182 438 64
2020-04-01 14:37:36 GMT 47.601700 40.369400 36,975 182 438 64
2020-04-01 14:37:32 GMT 47.609573 40.369675 36,975 182 438 64
2020-04-01 14:37:27 GMT 47.622711 40.370155 36,975 182 438 64
2020-04-01 14:37:22 GMT 47.630714 40.370461 36,975 182 438 64
2020-04-01 14:37:16 GMT 47.643356 40.370911 36,975 182 438 0
2020-04-01 14:37:12 GMT 47.651230 40.371185 36,975 182 438 0
2020-04-01 14:37:05 GMT 47.663727 40.371597 36,975 182 437 64
2020-04-01 14:37:01 GMT 47.671913 40.371868 36,975 182 437 64
2020-04-01 14:36:56 GMT 47.684555 40.372284 36,950 182 437 64
2020-04-01 14:36:51 GMT 47.692905 40.372574 36,950 182 437 0
2020-04-01 14:36:45 GMT 47.705242 40.372993 36,950 182 437 0
2020-04-01 14:36:41 GMT 47.713623 40.373245 36,950 182 437 0
2020-04-01 14:36:35 GMT 47.726238 40.373631 36,950 182 437 -64
2020-04-01 14:36:31 GMT 47.733688 40.373913 36,950 182 437 -64
2020-04-01 14:36:25 GMT 47.747421 40.374332 36,975 182 436 -64
2020-04-01 14:36:20 GMT 47.754730 40.374550 36,975 182 436 -64
2020-04-01 14:36:14 GMT 47.767345 40.374966 36,975 182 436 0
2020-04-01 14:36:10 GMT 47.775101 40.375168 36,975 182 436 0
2020-04-01 14:36:05 GMT 47.786430 40.375603 36,975 182 436 -64
2020-04-01 14:36:00 GMT 47.795925 40.375881 36,975 182 436 -64
2020-04-01 14:35:55 GMT 47.806587 40.376236 37,000 182 436 -64
2020-04-01 14:35:48 GMT 47.819248 40.376587 37,000 182 436 -64
2020-04-01 14:35:44 GMT 47.827423 40.376884 37,000 182 436 0
2020-04-01 14:35:39 GMT 47.840515 40.377296 37,000 182 436 0
2020-04-01 14:35:35 GMT 47.848251 40.377571 37,000 182 436 0
2020-04-01 14:35:28 GMT 47.860657 40.378052 37,000 182 436 0
2020-04-01 14:35:24 GMT 47.868484 40.378326 37,000 182 436 0
2020-04-01 14:35:17 GMT 47.881538 40.378769 37,000 182 437 -64
2020-04-01 14:35:13 GMT 47.889591 40.379051 37,000 182 437 0
2020-04-01 14:35:08 GMT 47.902222 40.379494 37,000 182 437 -64
2020-04-01 14:35:03 GMT 47.909981 40.379757 37,000 182 438 -64
2020-04-01 14:34:57 GMT 47.923416 40.380180 37,025 182 438 -64
2020-04-01 14:34:53 GMT 47.930836 40.380390 37,025 182 438 0
2020-04-01 14:34:46 GMT 47.944569 40.380882 37,000 182 441 0
2020-04-01 14:34:43 GMT 47.951752 40.381142 37,025 182 438 0
2020-04-01 14:34:36 GMT 47.965191 40.381588 37,025 182 439 64
2020-04-01 14:34:33 GMT 47.971478 40.381798 37,000 182 439 64
2020-04-01 14:34:26 GMT 47.986279 40.382362 37,000 182 440 64
2020-04-01 14:34:23 GMT 47.992676 40.382584 37,000 182 440 64
2020-04-01 14:34:16 GMT 48.006500 40.383133 37,000 182 441 0
2020-04-01 14:34:11 GMT 48.015884 40.383476 36,975 182 441 0
2020-04-01 14:34:05 GMT 48.035767 40.384121 37,000 182 441 0
2020-04-01 14:34:01 GMT 48.035767 40.384121 37,000 182 441 0
2020-04-01 14:33:56 GMT 48.048195 40.384544 37,000 182 441 0
2020-04-01 14:33:52 GMT 48.054523 40.384754 37,000 182 441 0
2020-04-01 14:33:45 GMT 48.069374 40.385250 37,000 182 443 0
2020-04-01 14:33:42 GMT 48.075939 40.385532 37,000 182 442 0
2020-04-01 14:33:35 GMT 48.090603 40.386024 37,000 182 442 0
2020-04-01 14:33:32 GMT 48.096329 40.386234 37,000 182 442 0
2020-04-01 14:33:25 GMT 48.118103 40.386978 37,000 182 442 0
2020-04-01 14:33:21 GMT 48.118103 40.386978 37,000 182 442 0
2020-04-01 14:33:12 GMT 48.138412 40.387573 37,000 182 443 0
2020-04-01 14:33:04 GMT 48.154861 40.388077 37,000 182 443 0
2020-04-01 14:33:01 GMT 48.158981 40.388145 37,000 182 443 0
2020-04-01 14:32:54 GMT 48.174397 40.388634 37,000 182 443 0
2020-04-01 14:32:51 GMT 48.179626 40.388771 37,025 182 443 0
2020-04-01 14:32:46 GMT 48.189056 40.389053 37,000 182 443 -64
2020-04-01 14:32:41 GMT 48.200840 40.389427 37,000 182 443 -64
2020-04-01 14:32:36 GMT 48.210342 40.389828 37,000 182 443 -64
2020-04-01 14:32:30 GMT 48.221603 40.390247 37,000 182 443 -64
2020-04-01 14:32:26 GMT 48.231331 40.390656 37,025 182 444 0
2020-04-01 14:32:21 GMT 48.242409 40.391090 37,025 182 444 -64
2020-04-01 14:32:16 GMT 48.251812 40.391525 37,025 182 444 0
2020-04-01 14:32:13 GMT 48.260925 40.391941 37,025 182 444 0
2020-04-01 14:32:10 GMT 48.263809 40.392010 37,025 182 445 0
2020-04-01 14:32:05 GMT 48.272949 40.392464 37,025 182 444 -64
2020-04-01 14:32:00 GMT 48.284317 40.392925 37,025 182 444 0
2020-04-01 14:31:55 GMT 48.293976 40.393276 37,025 182 444 0
2020-04-01 14:31:50 GMT 48.305347 40.393692 37,025 182 445 0
2020-04-01 14:31:45 GMT 48.314983 40.393982 37,025 182 445 -64
2020-04-01 14:31:42 GMT 48.322807 40.394272 37,025 182 445 -64
2020-04-01 14:31:39 GMT 48.327133 40.394417 37,050 182 445 -64
2020-04-01 14:31:35 GMT 48.335449 40.394688 37,050 182 445 0
2020-04-01 14:31:30 GMT 48.347477 40.395065 37,050 182 445 0
2020-04-01 14:31:25 GMT 48.356510 40.395428 37,050 182 445 0
2020-04-01 14:31:19 GMT 48.368847 40.395863 37,000 182 446 64
2020-04-01 14:31:14 GMT 48.377922 40.396149 37,025 182 446 64
2020-04-01 14:31:10 GMT 48.388397 40.396584 37,025 182 446 64
2020-04-01 14:31:07 GMT 48.395691 40.396870 37,025 182 446 64
2020-04-01 14:31:04 GMT 48.398575 40.396938 37,025 182 446 64
2020-04-01 14:30:58 GMT 48.410522 40.397434 37,025 182 446 64
2020-04-01 14:30:54 GMT 48.420334 40.397812 37,000 182 447 0
2020-04-01 14:30:50 GMT 48.428574 40.398174 37,000 182 447 0
2020-04-01 14:30:46 GMT 48.441189 40.398609 37,025 182 447 0
2020-04-01 14:30:39 GMT 48.452732 40.399040 37,000 182 447 64
2020-04-01 14:30:33 GMT 48.461884 40.399334 37,000 182 447 0
2020-04-01 14:30:28 GMT 48.474148 40.399765 37,000 182 446 64
2020-04-01 14:30:23 GMT 48.482807 40.400051 37,000 182 447 64
2020-04-01 14:30:19 GMT 48.492115 40.400341 37,000 182 447 0
2020-04-01 14:30:16 GMT 48.504265 40.400703 37,000 182 447 64
2020-04-01 14:30:13 GMT 48.504265 40.400703 37,000 182 446 64
2020-04-01 14:30:09 GMT 48.513577 40.400993 37,000 182 446 64
2020-04-01 14:30:06 GMT 48.518005 40.401165 37,000 182 447 64
2020-04-01 14:30:02 GMT 48.526016 40.401379 37,000 182 447 0
2020-04-01 14:29:57 GMT 48.538193 40.401730 37,000 182 446 0
2020-04-01 14:29:52 GMT 48.546768 40.402004 37,000 182 446 0
2020-04-01 14:29:48 GMT 48.556217 40.402222 37,000 182 446 -64
2020-04-01 14:29:45 GMT 48.567673 40.402573 37,000 182 446 -64
2020-04-01 14:29:42 GMT 48.567673 40.402573 37,000 182 446 -64
2020-04-01 14:29:38 GMT 48.577446 40.402870 37,000 182 446 -64
2020-04-01 14:29:35 GMT 48.585033 40.403160 37,000 182 445 0
2020-04-01 14:29:32 GMT 48.589462 40.403278 37,000 182 445 0
2020-04-01 14:29:27 GMT 48.599945 40.403629 37,000 182 445 0
2020-04-01 14:29:24 GMT 48.611893 40.403980 37,000 182 445 -64
2020-04-01 14:29:16 GMT 48.620911 40.404263 37,025 182 445 -64
2020-04-01 14:29:13 GMT 48.627090 40.404476 37,025 182 444 -64
2020-04-01 14:29:10 GMT 48.633224 40.404686 37,025 182 444 -64
2020-04-01 14:29:07 GMT 48.641361 40.404896 37,025 182 444 -64
2020-04-01 14:29:04 GMT 48.647598 40.405109 37,025 182 444 -64
2020-04-01 14:29:00 GMT 48.653961 40.405319 37,025 182 444 0
2020-04-01 14:28:56 GMT 48.662868 40.405621 37,025 182 444 0
2020-04-01 14:28:53 GMT 48.669060 40.405834 37,025 182 444 0
2020-04-01 14:28:50 GMT 48.674881 40.406025 37,025 182 444 0
2020-04-01 14:28:47 GMT 48.683487 40.406307 37,025 182 444 0
2020-04-01 14:28:44 GMT 48.690197 40.406487 37,025 182 444 64
2020-04-01 14:28:40 GMT 48.695503 40.406631 37,025 182 444 64
2020-04-01 14:28:36 GMT 48.704350 40.406921 37,000 182 444 64
2020-04-01 14:28:33 GMT 48.711704 40.407207 37,000 182 444 64
2020-04-01 14:28:30 GMT 48.716721 40.407364 37,000 182 444 64
2020-04-01 14:28:25 GMT 48.725857 40.407642 37,000 182 444 64
2020-04-01 14:28:22 GMT 48.732742 40.407856 37,000 182 444 64
2020-04-01 14:28:19 GMT 48.738052 40.407997 37,000 182 444 0
2020-04-01 14:28:16 GMT 48.746658 40.408279 37,000 182 444 64
2020-04-01 14:28:12 GMT 48.753845 40.408489 37,000 182 444 64
2020-04-01 14:28:09 GMT 48.759094 40.408653 37,000 182 444 0
2020-04-01 14:28:05 GMT 48.767990 40.408913 37,000 182 444 0
2020-04-01 14:28:02 GMT 48.773010 40.409088 37,000 182 444 0
2020-04-01 14:27:59 GMT 48.779575 40.409233 36,975 182 444 0
2020-04-01 14:27:53 GMT 48.793495 40.409595 36,975 182 443 64
2020-04-01 14:27:48 GMT 48.801689 40.409809 36,975 182 443 64
2020-04-01 14:27:45 GMT 48.810196 40.410110 36,975 182 443 0
2020-04-01 14:27:41 GMT 48.817841 40.410316 36,975 182 443 64
2020-04-01 14:27:38 GMT 48.821640 40.410393 36,975 182 443 64
2020-04-01 14:27:34 GMT 48.830971 40.410679 36,975 182 443 0
2020-04-01 14:27:30 GMT 48.838394 40.410885 36,975 182 442 0
2020-04-01 14:27:23 GMT 48.853642 40.411255 36,975 182 442 64
2020-04-01 14:27:20 GMT 48.859634 40.411446 36,975 182 442 0
2020-04-01 14:27:12 GMT 48.877808 40.412010 36,975 182 441 0
2020-04-01 14:27:09 GMT 48.880875 40.412151 36,975 182 441 0
2020-04-01 14:27:03 GMT 48.894104 40.412716 36,950 183 441 0
2020-04-01 14:27:00 GMT 48.900787 40.413139 36,975 183 440 0
2020-04-01 14:26:53 GMT 48.914383 40.414124 36,950 183 439 0
2020-04-01 14:26:50 GMT 48.921478 40.414688 36,950 184 439 0
2020-04-01 14:26:42 GMT 48.937202 40.416027 36,975 184 439 -64
2020-04-01 14:26:39 GMT 48.942581 40.416519 36,975 184 439 -64
2020-04-01 14:26:34 GMT 48.954845 40.417473 36,975 183 439 0
2020-04-01 14:26:31 GMT 48.960152 40.417908 36,975 183 439 0
2020-04-01 14:26:28 GMT 48.964096 40.418209 36,975 183 439 0
2020-04-01 14:26:22 GMT 48.977463 40.419266 36,975 183 439 -64
2020-04-01 14:26:19 GMT 48.984558 40.419827 36,975 183 439 -64
2020-04-01 14:26:12 GMT 48.998566 40.420956 36,975 183 439 -64
2020-04-01 14:26:08 GMT 49.004749 40.421448 36,975 183 439 -64
2020-04-01 14:26:03 GMT 49.016342 40.422314 37,000 183 439 -128
2020-04-01 14:25:59 GMT 49.025463 40.423038 37,000 183 439 -128
2020-04-01 14:25:51 GMT 49.040771 40.424335 37,025 184 439 -128
2020-04-01 14:25:48 GMT 49.045807 40.424759 37,025 184 439 -128
2020-04-01 14:25:41 GMT 49.060520 40.426003 37,025 184 439 -64
2020-04-01 14:25:38 GMT 49.066910 40.426517 37,050 184 439 -64
2020-04-01 14:25:30 GMT 49.084534 40.427998 37,050 184 440 0
2020-04-01 14:25:20 GMT 49.103256 40.429546 37,050 184 441 0
2020-04-01 14:25:17 GMT 49.108841 40.430050 37,050 183 441 -64
2020-04-01 14:25:11 GMT 49.123627 40.431236 37,050 183 441 0
2020-04-01 14:25:08 GMT 49.128998 40.431641 37,050 183 441 0
2020-04-01 14:25:00 GMT 49.144409 40.432926 37,050 184 442 0
2020-04-01 14:24:57 GMT 49.150497 40.433418 37,025 184 442 0
2020-04-01 14:24:50 GMT 49.165726 40.434673 37,050 184 443 -64
2020-04-01 14:24:47 GMT 49.169907 40.435040 37,050 184 443 -64
2020-04-01 14:24:40 GMT 49.184349 40.436192 37,050 184 443 0
2020-04-01 14:24:37 GMT 49.191284 40.436771 37,050 184 443 64
2020-04-01 14:24:29 GMT 49.207855 40.438145 37,025 184 443 64
2020-04-01 14:24:26 GMT 49.213394 40.438648 37,025 184 444 0
2020-04-01 14:24:20 GMT 49.225266 40.439590 37,025 184 444 64
2020-04-01 14:24:17 GMT 49.233765 40.440323 37,025 184 444 64
2020-04-01 14:24:10 GMT 49.245983 40.441399 37,000 184 444 64
2020-04-01 14:24:06 GMT 49.254780 40.442120 37,000 184 444 64
2020-04-01 14:24:00 GMT 49.266403 40.443138 37,000 184 445 64
2020-04-01 14:23:56 GMT 49.275963 40.443855 37,000 184 445 0
2020-04-01 14:23:49 GMT 49.288254 40.444866 37,000 184 445 64
2020-04-01 14:23:46 GMT 49.296261 40.445515 37,000 184 445 64
2020-04-01 14:23:39 GMT 49.309013 40.446529 36,975 184 445 64
2020-04-01 14:23:36 GMT 49.316788 40.447178 36,975 184 445 0
2020-04-01 14:23:30 GMT 49.329357 40.448193 36,975 184 445 0
2020-04-01 14:23:26 GMT 49.338272 40.448982 36,975 184 445 -64
2020-04-01 14:23:19 GMT 49.350403 40.449970 37,000 184 445 -64
2020-04-01 14:23:15 GMT 49.358685 40.450649 37,000 184 444 -64
2020-04-01 14:23:09 GMT 49.371735 40.451733 37,000 184 444 -128
2020-04-01 14:23:05 GMT 49.380341 40.452435 37,000 184 444 -64
2020-04-01 14:22:57 GMT 49.396255 40.453754 37,025 184 444 -64
2020-04-01 14:22:54 GMT 49.401443 40.454266 37,025 184 444 -128
2020-04-01 14:22:48 GMT 49.413616 40.455345 37,025 184 443 -64
2020-04-01 14:22:44 GMT 49.421810 40.456070 37,025 184 443 -64
2020-04-01 14:22:39 GMT 49.434101 40.456856 37,050 182 444 -64
2020-04-01 14:22:35 GMT 49.443237 40.457226 37,050 181 445 0
2020-04-01 14:22:28 GMT 49.455597 40.457371 37,050 179 446 64
2020-04-01 14:22:24 GMT 49.463524 40.457230 37,050 178 446 0
2020-04-01 14:22:18 GMT 49.476791 40.456646 37,025 177 447 0
2020-04-01 14:22:14 GMT 49.484749 40.456116 37,025 176 447 0
2020-04-01 14:22:08 GMT 49.497364 40.454926 37,025 175 448 64
2020-04-01 14:22:03 GMT 49.506817 40.453739 37,025 174 448 64
2020-04-01 14:21:57 GMT 49.518494 40.451950 37,025 173 449 64
2020-04-01 14:21:53 GMT 49.527145 40.450432 37,025 172 450 64
2020-04-01 14:21:48 GMT 49.548294 40.445797 37,025 170 450 0
2020-04-01 14:21:44 GMT 49.548294 40.445797 37,025 170 450 0
2020-04-01 14:21:37 GMT 49.561111 40.442410 37,000 169 451 64
2020-04-01 14:21:33 GMT 49.569717 40.439808 37,025 169 452 64
2020-04-01 14:21:27 GMT 49.581673 40.435925 37,000 167 452 64
2020-04-01 14:21:23 GMT 49.589905 40.432941 37,000 166 453 128
2020-04-01 14:21:14 GMT 49.606392 40.426346 36,975 164 453 64
2020-04-01 14:21:10 GMT 49.614761 40.422604 36,975 163 453 64
2020-04-01 14:21:05 GMT 49.627106 40.416698 36,975 162 455 0
2020-04-01 14:21:02 GMT 49.632275 40.414101 36,975 161 455 -64
2020-04-01 14:20:57 GMT 49.642841 40.408607 36,975 161 455 0
2020-04-01 14:20:54 GMT 49.646713 40.406559 36,975 161 454 0
2020-04-01 14:20:51 GMT 49.653175 40.403187 36,975 161 454 0
2020-04-01 14:20:44 GMT 49.667175 40.395863 36,975 161 454 64
2020-04-01 14:20:40 GMT 49.674217 40.392200 36,975 161 453 0
2020-04-01 14:20:36 GMT 49.683060 40.387623 36,975 161 453 64
2020-04-01 14:20:33 GMT 49.688004 40.385094 36,975 161 453 0
2020-04-01 14:20:30 GMT 49.696049 40.380917 36,975 161 453 0
2020-04-01 14:20:23 GMT 49.708054 40.374683 36,975 161 453 0
2020-04-01 14:20:20 GMT 49.714783 40.371143 36,950 161 452 0
2020-04-01 14:20:14 GMT 49.727692 40.364422 36,950 161 453 0
2020-04-01 14:20:10 GMT 49.734921 40.360653 36,950 161 453 -64
2020-04-01 14:20:03 GMT 49.748795 40.353378 36,975 161 452 0
2020-04-01 14:19:59 GMT 49.755798 40.349747 36,950 161 452 0
2020-04-01 14:19:53 GMT 49.768478 40.343098 36,975 161 452 0
2020-04-01 14:19:50 GMT 49.776073 40.339127 36,950 161 452 0
2020-04-01 14:19:43 GMT 49.788364 40.332813 36,950 161 452 64
2020-04-01 14:19:39 GMT 49.796463 40.328659 36,950 161 452 0
2020-04-01 14:19:35 GMT 49.804688 40.324451 36,950 161 452 -64
2020-04-01 14:19:30 GMT 49.813316 40.319973 36,975 161 452 -64
2020-04-01 14:19:25 GMT 49.825470 40.313751 36,975 161 451 -64
2020-04-01 14:19:22 GMT 49.829407 40.311657 36,975 161 451 -64
2020-04-01 14:19:19 GMT 49.837803 40.307354 36,975 161 451 -64
2020-04-01 14:19:12 GMT 49.848999 40.301609 36,975 161 451 0
2020-04-01 14:19:08 GMT 49.859436 40.296188 36,975 161 451 0
2020-04-01 14:19:04 GMT 49.865082 40.293247 36,975 161 451 0
2020-04-01 14:19:00 GMT 49.872993 40.289093 36,975 161 451 0
2020-04-01 14:18:56 GMT 49.880302 40.285305 36,975 161 451 -64
2020-04-01 14:18:53 GMT 49.886490 40.282024 36,975 161 451 -64
2020-04-01 14:18:50 GMT 49.893898 40.278107 36,975 161 452 -64
2020-04-01 14:18:46 GMT 49.900833 40.274467 37,000 161 451 -64
2020-04-01 14:18:43 GMT 49.906139 40.271648 37,000 161 451 -64
2020-04-01 14:18:39 GMT 49.914429 40.267269 37,000 161 451 -64
2020-04-01 14:18:34 GMT 49.925877 40.261253 37,000 161 451 0
2020-04-01 14:18:29 GMT 49.933868 40.257088 37,000 161 451 0
2020-04-01 14:18:23 GMT 49.945850 40.250790 37,000 161 452 0
2020-04-01 14:18:19 GMT 49.954926 40.246037 37,000 161 452 -64
2020-04-01 14:18:15 GMT 49.960884 40.242920 37,000 161 452 -64
2020-04-01 14:18:12 GMT 49.967403 40.239506 37,000 161 452 -64
2020-04-01 14:18:09 GMT 49.974243 40.235909 37,000 161 453 -64
2020-04-01 14:18:06 GMT 49.982487 40.231564 37,000 161 453 -64
2020-04-01 14:18:02 GMT 49.986443 40.229408 37,025 161 453 -64
2020-04-01 14:17:59 GMT 49.994171 40.225327 37,025 161 453 -64
2020-04-01 14:17:52 GMT 50.006516 40.218781 37,025 161 453 -64
2020-04-01 14:17:49 GMT 50.014561 40.214489 37,025 161 453 -64
2020-04-01 14:17:43 GMT 50.027039 40.207882 37,025 161 454 0
2020-04-01 14:17:38 GMT 50.035080 40.203602 37,025 161 454 0
2020-04-01 14:17:32 GMT 50.047100 40.197193 37,025 161 455 -64
2020-04-01 14:17:28 GMT 50.054688 40.193260 37,025 161 455 -64
2020-04-01 14:17:22 GMT 50.067352 40.186615 37,025 161 456 0
2020-04-01 14:17:18 GMT 50.075405 40.182346 37,025 161 456 -64
2020-04-01 14:17:11 GMT 50.088272 40.175556 37,025 161 456 0
2020-04-01 14:17:08 GMT 50.094955 40.172028 37,025 161 456 0
2020-04-01 14:17:02 GMT 50.108231 40.165077 37,025 161 457 64
2020-04-01 14:16:57 GMT 50.116741 40.160599 37,025 161 457 128
2020-04-01 14:16:54 GMT 50.124748 40.156364 37,000 161 457 64
2020-04-01 14:16:51 GMT 50.128754 40.154285 37,000 161 458 64
2020-04-01 14:16:47 GMT 50.137135 40.149834 37,000 161 458 64
2020-04-01 14:16:41 GMT 50.148880 40.143681 36,975 161 459 128
2020-04-01 14:16:37 GMT 50.156891 40.139488 36,975 161 459 64
2020-04-01 14:16:31 GMT 50.169754 40.132694 36,975 161 459 64
2020-04-01 14:16:27 GMT 50.177582 40.128574 36,975 161 459 0
2020-04-01 14:16:20 GMT 50.190716 40.121624 36,975 161 459 0
2020-04-01 14:16:17 GMT 50.197632 40.117950 36,975 161 458 0
2020-04-01 14:16:11 GMT 50.210861 40.110939 36,975 161 459 64
2020-04-01 14:16:07 GMT 50.218689 40.106747 36,975 161 459 64
2020-04-01 14:15:58 GMT 50.235683 40.097797 36,975 161 459 0
2020-04-01 14:15:55 GMT 50.240898 40.095051 36,975 161 459 0
2020-04-01 14:15:50 GMT 50.251648 40.089329 36,975 161 459 -64
2020-04-01 14:15:46 GMT 50.261078 40.084339 36,975 161 459 -64
2020-04-01 14:15:40 GMT 50.272293 40.078342 37,000 161 458 -64
2020-04-01 14:15:35 GMT 50.282135 40.073139 37,000 161 458 -64
2020-04-01 14:15:27 GMT 50.297272 40.065060 37,000 161 459 -128
2020-04-01 14:15:24 GMT 50.303421 40.061863 37,000 161 459 -64
2020-04-01 14:15:20 GMT 50.313858 40.056297 37,025 161 459 -128
2020-04-01 14:15:15 GMT 50.323654 40.051094 37,025 161 459 -128
2020-04-01 14:15:07 GMT 50.338005 40.043461 37,025 161 459 0
2020-04-01 14:15:04 GMT 50.343639 40.040489 37,025 161 459 0
2020-04-01 14:14:59 GMT 50.354599 40.034615 37,025 161 460 0
2020-04-01 14:14:54 GMT 50.364773 40.029282 37,025 161 460 0
2020-04-01 14:14:49 GMT 50.374329 40.024204 37,025 161 460 64
2020-04-01 14:14:46 GMT 50.379436 40.021484 37,025 161 460 0
2020-04-01 14:14:43 GMT 50.386414 40.017773 37,025 161 460 0
2020-04-01 14:14:38 GMT 50.394836 40.013290 37,025 161 461 -64
2020-04-01 14:14:35 GMT 50.403534 40.008663 37,025 161 461 -64
2020-04-01 14:14:29 GMT 50.423676 39.997894 37,025 161 462 0
2020-04-01 14:14:24 GMT 50.423676 39.997894 37,025 161 462 -64
2020-04-01 14:14:18 GMT 50.436584 39.990955 37,025 161 462 0
2020-04-01 14:14:15 GMT 50.443634 39.987198 37,050 161 462 0
2020-04-01 14:14:08 GMT 50.456543 39.980259 37,050 161 461 0
2020-04-01 14:14:04 GMT 50.464954 39.975834 37,050 161 461 0
2020-04-01 14:13:57 GMT 50.477848 39.968857 37,050 160 462 0
2020-04-01 14:13:54 GMT 50.485718 39.964622 37,050 160 462 0
2020-04-01 14:13:47 GMT 50.498051 39.957943 37,050 160 462 0
2020-04-01 14:13:44 GMT 50.506336 39.953491 37,050 160 463 0
2020-04-01 14:13:37 GMT 50.519466 39.946362 37,050 161 462 0
2020-04-01 14:13:34 GMT 50.525848 39.942963 37,050 161 462 0
2020-04-01 14:13:24 GMT 50.546677 39.931831 37,050 161 463 0
2020-04-01 14:13:13 GMT 50.567413 39.920830 37,050 161 462 0
2020-04-01 14:13:03 GMT 50.588455 39.909546 37,025 161 462 128
2020-04-01 14:12:52 GMT 50.609684 39.898113 37,025 161 462 64
2020-04-01 14:12:42 GMT 50.629704 39.887348 37,000 161 462 64
2020-04-01 14:12:33 GMT 50.650040 39.876396 37,000 161 462 -64
2020-04-01 14:12:23 GMT 50.671131 39.865005 37,025 161 462 0
2020-04-01 14:12:12 GMT 50.690964 39.854240 37,000 161 461 64
2020-04-01 14:12:02 GMT 50.711884 39.842884 37,000 160 461 64
2020-04-01 14:11:52 GMT 50.732071 39.831848 36,975 160 460 64
2020-04-01 14:11:41 GMT 50.752972 39.820404 36,975 160 459 64
2020-04-01 14:11:32 GMT 50.773174 39.809265 36,975 160 459 -64
2020-04-01 14:11:21 GMT 50.793568 39.798126 37,000 161 457 -64
2020-04-01 14:11:11 GMT 50.813461 39.787285 36,975 160 456 64
2020-04-01 14:11:01 GMT 50.833881 39.776154 36,975 161 456 64
2020-04-01 14:10:50 GMT 50.854828 39.764786 36,950 161 456 0
2020-04-01 14:10:41 GMT 50.874519 39.754105 36,975 161 455 0
2020-04-01 14:10:30 GMT 50.895794 39.742584 36,975 161 454 0
2020-04-01 14:10:20 GMT 50.915131 39.731979 36,950 160 455 64
2020-04-01 14:10:10 GMT 50.935959 39.720474 36,950 160 454 0
2020-04-01 14:10:00 GMT 50.955894 39.709549 36,975 160 454 -64
2020-04-01 14:09:49 GMT 50.975784 39.698650 36,975 160 453 0
2020-04-01 14:09:39 GMT 50.996300 39.687424 36,975 160 453 0
2020-04-01 14:09:29 GMT 51.016502 39.676361 36,975 160 454 0
2020-04-01 14:09:19 GMT 51.036392 39.665394 36,975 160 454 0
2020-04-01 14:09:09 GMT 51.056808 39.654186 36,975 160 454 -64
2020-04-01 14:08:58 GMT 51.077042 39.642979 36,975 160 454 -64
2020-04-01 14:08:48 GMT 51.097046 39.631916 37,000 160 455 -64
2020-04-01 14:08:37 GMT 51.119843 39.619373 37,000 160 455 0
2020-04-01 14:08:27 GMT 51.138611 39.608994 37,000 160 455 -128
2020-04-01 14:08:17 GMT 51.159279 39.597473 37,025 160 455 -64
2020-04-01 14:08:07 GMT 51.179031 39.586487 37,025 160 456 0
2020-04-01 14:07:57 GMT 51.198715 39.575500 37,025 160 457 64
2020-04-01 14:07:47 GMT 51.218590 39.564438 37,000 160 457 128
2020-04-01 14:07:37 GMT 51.238678 39.553230 36,975 160 459 64
2020-04-01 14:07:26 GMT 51.260284 39.541130 36,975 160 460 0
2020-04-01 14:07:16 GMT 51.280151 39.529995 36,975 160 460 0
2020-04-01 14:07:05 GMT 51.301079 39.518204 36,975 160 461 0
2020-04-01 14:06:55 GMT 51.322083 39.506466 36,975 160 461 -64
2020-04-01 14:06:45 GMT 51.341583 39.495552 36,975 160 461 -64
2020-04-01 14:06:35 GMT 51.362759 39.483719 37,000 160 461 0
2020-04-01 14:06:30 GMT 51.373421 39.477768 37,000 160 462 -128
2020-04-01 14:06:24 GMT 51.383331 39.472244 37,000 160 461 0
2020-04-01 14:06:14 GMT 51.404003 39.460754 37,000 160 462 -64
2020-04-01 14:06:04 GMT 51.424721 39.449158 37,025 160 462 -64
2020-04-01 14:05:53 GMT 51.445904 39.437256 37,050 160 463 -64
2020-04-01 14:05:44 GMT 51.465134 39.426517 37,050 160 463 0
2020-04-01 14:05:40 GMT 51.473419 39.421841 37,050 160 463 -64
2020-04-01 14:05:31 GMT 51.493652 39.410557 37,050 160 464 -64
2020-04-01 14:05:23 GMT 51.506607 39.403282 37,050 160 465 -64
2020-04-01 14:05:12 GMT 51.529083 39.390663 37,050 160 465 0
2020-04-01 14:05:09 GMT 51.537937 39.385681 37,050 160 466 128
2020-04-01 14:05:03 GMT 51.548584 39.379677 37,050 160 466 64
2020-04-01 14:04:57 GMT 51.562180 39.372032 37,050 160 466 0
2020-04-01 14:04:52 GMT 51.569824 39.367676 37,050 160 467 64
2020-04-01 14:04:48 GMT 51.580078 39.361935 37,025 160 467 64
2020-04-01 14:04:44 GMT 51.588638 39.357109 37,025 160 468 0
2020-04-01 14:04:40 GMT 51.596786 39.352432 37,025 160 469 -128
2020-04-01 14:04:32 GMT 51.610931 39.344406 37,050 160 468 -64
2020-04-01 14:04:28 GMT 51.618988 39.339741 37,050 160 467 64
2020-04-01 14:04:22 GMT 51.632172 39.332169 37,025 160 467 128
2020-04-01 14:04:19 GMT 51.639187 39.328232 37,025 160 466 192
2020-04-01 14:04:12 GMT 51.652641 39.320526 37,000 160 468 128
2020-04-01 14:04:09 GMT 51.659344 39.316635 36,975 160 468 64
2020-04-01 14:04:02 GMT 51.671539 39.309616 37,000 160 468 0
2020-04-01 14:03:59 GMT 51.679825 39.304775 37,000 160 469 -64
2020-04-01 14:03:53 GMT 51.692722 39.297256 37,000 160 468 64
2020-04-01 14:03:49 GMT 51.700928 39.292381 37,000 159 468 64
2020-04-01 14:03:41 GMT 51.714935 39.284142 37,000 159 468 0
2020-04-01 14:03:37 GMT 51.722076 39.279907 37,000 159 468 64
2020-04-01 14:03:31 GMT 51.736038 39.271595 37,000 159 468 0
2020-04-01 14:03:26 GMT 51.744141 39.266769 37,000 159 467 128
2020-04-01 14:03:20 GMT 51.756500 39.259495 36,975 160 466 0
2020-04-01 14:03:17 GMT 51.765530 39.254303 37,000 160 467 0
2020-04-01 14:03:10 GMT 51.777420 39.247543 37,000 160 467 -64
2020-04-01 14:03:05 GMT 51.789047 39.241085 37,000 161 466 -64
2020-04-01 14:03:00 GMT 51.798843 39.235813 37,000 161 466 -64
2020-04-01 14:02:56 GMT 51.807632 39.231213 37,000 162 465 -64
2020-04-01 14:02:50 GMT 51.818893 39.225498 37,025 162 465 0
2020-04-01 14:02:47 GMT 51.825115 39.222336 37,000 162 465 0
2020-04-01 14:02:39 GMT 51.840179 39.214661 37,000 162 465 -64
2020-04-01 14:02:35 GMT 51.847416 39.210968 37,000 162 464 0
2020-04-01 14:02:31 GMT 51.866455 39.201279 37,000 162 464 -64
2020-04-01 14:02:27 GMT 51.866455 39.201279 37,025 162 464 0
2020-04-01 14:02:19 GMT 51.882706 39.192909 37,025 162 464 0
2020-04-01 14:02:11 GMT 51.900696 39.183731 36,975 162 464 128
2020-04-01 14:02:08 GMT 51.903763 39.182129 37,000 162 464 128
2020-04-01 14:01:58 GMT 51.923767 39.171906 36,975 162 464 64
2020-04-01 14:01:48 GMT 51.944756 39.161316 36,975 162 465 0
2020-04-01 14:01:38 GMT 51.966156 39.150391 36,975 162 464 -64
2020-04-01 14:01:28 GMT 51.986938 39.139709 36,975 162 463 -64
2020-04-01 14:01:17 GMT 52.008251 39.128670 37,000 162 462 0
2020-04-01 14:01:07 GMT 52.028599 39.118156 36,975 162 462 64
2020-04-01 14:00:57 GMT 52.049057 39.107666 36,975 162 462 128
2020-04-01 14:00:48 GMT 52.067513 39.098225 36,950 162 463 0
2020-04-01 14:00:45 GMT 52.074867 39.094456 36,950 162 463 0
2020-04-01 14:00:39 GMT 52.091164 39.086140 36,975 162 462 -64
2020-04-01 14:00:32 GMT 52.101124 39.081036 36,975 162 462 -64
2020-04-01 14:00:29 GMT 52.109390 39.076843 36,975 162 462 0
2020-04-01 14:00:24 GMT 52.117790 39.072483 36,975 162 461 64
2020-04-01 14:00:18 GMT 52.129986 39.066128 36,950 162 462 128
2020-04-01 14:00:14 GMT 52.142075 39.059906 36,950 162 462 64
2020-04-01 14:00:06 GMT 52.153473 39.054031 36,950 162 462 0
2020-04-01 14:00:02 GMT 52.160294 39.050430 36,950 162 462 -64
2020-04-01 13:59:58 GMT 52.170673 39.045097 36,975 162 462 -128
2020-04-01 13:59:53 GMT 52.178741 39.040909 36,975 162 462 -128
2020-04-01 13:59:48 GMT 52.191559 39.034271 36,975 162 462 -64
2020-04-01 13:59:44 GMT 52.198654 39.030609 37,000 162 461 -64
2020-04-01 13:59:37 GMT 52.212803 39.023281 37,000 162 462 -64
2020-04-01 13:59:34 GMT 52.220032 39.019547 37,000 162 462 0
2020-04-01 13:59:27 GMT 52.232849 39.012909 37,000 162 462 0
2020-04-01 13:59:24 GMT 52.240173 39.009094 37,000 162 462 0
2020-04-01 13:59:20 GMT 52.247158 39.005390 37,000 162 462 0
2020-04-01 13:59:15 GMT 52.257477 39.000092 37,000 162 462 0
2020-04-01 13:59:12 GMT 52.261639 38.997932 37,000 162 463 -64
2020-04-01 13:59:08 GMT 52.271645 38.992756 37,000 162 463 -64
2020-04-01 13:59:04 GMT 52.278900 38.988953 37,000 162 463 -128
2020-04-01 13:59:01 GMT 52.288174 38.984123 37,025 162 463 -64
2020-04-01 13:58:57 GMT 52.295109 38.980511 37,025 162 464 -64
2020-04-01 13:58:53 GMT 52.300919 38.977509 37,025 162 464 0
2020-04-01 13:58:50 GMT 52.308376 38.973530 37,025 161 464 0
2020-04-01 13:58:46 GMT 52.317032 38.968964 37,025 161 464 0
2020-04-01 13:58:43 GMT 52.324108 38.965210 37,025 161 465 0
2020-04-01 13:58:39 GMT 52.330124 38.962021 37,025 161 465 0
2020-04-01 13:58:36 GMT 52.337379 38.958069 37,025 161 466 0
2020-04-01 13:58:33 GMT 52.344635 38.954239 37,025 161 466 -64
2020-04-01 13:58:25 GMT 52.358322 38.946991 37,025 162 465 -64
2020-04-01 13:58:21 GMT 52.368103 38.942139 37,025 163 466 -64
2020-04-01 13:58:15 GMT 52.379562 38.936920 37,025 164 465 -64
2020-04-01 13:58:11 GMT 52.386017 38.934097 37,050 166 464 -128
2020-04-01 13:58:06 GMT 52.405716 38.926445 37,050 167 464 -64
2020-04-01 13:57:58 GMT 52.417191 38.922577 37,050 169 464 0
2020-04-01 13:57:55 GMT 52.422409 38.920898 37,050 169 464 0
2020-04-01 13:57:52 GMT 52.429691 38.918598 37,050 169 465 0
2020-04-01 13:57:45 GMT 52.443192 38.914360 37,075 168 465 -64
2020-04-01 13:57:42 GMT 52.450127 38.912163 37,050 169 465 -64
2020-04-01 13:57:36 GMT 52.461952 38.908394 37,050 169 466 0
2020-04-01 13:57:32 GMT 52.471867 38.905254 37,050 169 466 0
2020-04-01 13:57:24 GMT 52.486485 38.900703 37,050 169 466 64
2020-04-01 13:57:20 GMT 52.494072 38.898273 37,050 169 467 64
2020-04-01 13:57:15 GMT 52.508377 38.893814 37,050 169 467 64
2020-04-01 13:57:10 GMT 52.517487 38.890991 37,025 169 468 64
2020-04-01 13:57:04 GMT 52.531406 38.886658 37,025 169 467 128
2020-04-01 13:57:01 GMT 52.536713 38.885010 37,025 169 467 128
2020-04-01 13:56:53 GMT 52.555069 38.879395 37,000 169 467 64
2020-04-01 13:56:49 GMT 52.562073 38.877258 37,000 169 467 64
2020-04-01 13:56:44 GMT 52.572605 38.874104 37,000 169 467 128
2020-04-01 13:56:40 GMT 52.581497 38.871353 37,000 169 467 128
2020-04-01 13:56:34 GMT 52.594440 38.867432 36,975 169 467 64
2020-04-01 13:56:31 GMT 52.599747 38.865784 36,975 169 467 64
2020-04-01 13:56:21 GMT 52.634521 38.854954 36,975 169 467 64
2020-04-01 13:56:10 GMT 52.646484 38.851242 36,975 169 467 64
2020-04-01 13:56:03 GMT 52.659622 38.847122 36,975 169 467 0
2020-04-01 13:55:59 GMT 52.667759 38.844597 36,975 169 467 -64
2020-04-01 13:55:53 GMT 52.680653 38.840515 36,975 169 466 0
2020-04-01 13:55:49 GMT 52.689880 38.837585 36,975 169 466 0
2020-04-01 13:55:43 GMT 52.702675 38.833530 36,975 169 466 0
2020-04-01 13:55:40 GMT 52.707932 38.831882 36,975 169 466 0
2020-04-01 13:55:33 GMT 52.724178 38.826702 36,975 169 466 -64
2020-04-01 13:55:28 GMT 52.734879 38.823318 36,975 168 465 -64
2020-04-01 13:55:22 GMT 52.745819 38.819885 37,000 168 465 -64
2020-04-01 13:55:19 GMT 52.756989 38.816299 37,000 169 465 0
2020-04-01 13:55:12 GMT 52.767010 38.813129 37,000 169 464 0
2020-04-01 13:55:06 GMT 52.780045 38.809048 37,000 169 464 0
2020-04-01 13:55:02 GMT 52.788162 38.806458 37,000 169 464 -64
2020-04-01 13:54:59 GMT 52.795761 38.804092 37,000 169 464 -64
2020-04-01 13:54:56 GMT 52.801849 38.802185 37,000 169 464 -64
2020-04-01 13:54:49 GMT 52.816818 38.797455 37,025 169 464 -64
2020-04-01 13:54:45 GMT 52.824188 38.795090 37,025 169 464 -64
2020-04-01 13:54:42 GMT 52.831436 38.792805 37,025 169 464 -64
2020-04-01 13:54:38 GMT 52.837536 38.790840 37,025 168 464 -64
2020-04-01 13:54:35 GMT 52.846069 38.788071 37,025 168 464 -64
2020-04-01 13:54:31 GMT 52.853500 38.785664 37,025 169 464 64
2020-04-01 13:54:28 GMT 52.859833 38.783623 37,025 169 464 64
2020-04-01 13:54:24 GMT 52.868214 38.780952 37,025 169 464 64
2020-04-01 13:54:21 GMT 52.874863 38.778839 37,025 169 464 64
2020-04-01 13:54:18 GMT 52.881180 38.776855 37,025 169 464 64
2020-04-01 13:54:14 GMT 52.890743 38.773735 37,000 169 464 64
2020-04-01 13:54:10 GMT 52.896656 38.771931 37,025 169 465 64
2020-04-01 13:54:07 GMT 52.904114 38.769531 37,000 169 466 64
2020-04-01 13:54:04 GMT 52.911598 38.767143 37,000 169 465 0
2020-04-01 13:54:01 GMT 52.917091 38.765415 37,000 169 465 0
2020-04-01 13:53:57 GMT 52.923656 38.763298 37,000 169 465 64
2020-04-01 13:53:50 GMT 52.941238 38.757706 37,000 169 465 64
2020-04-01 13:53:46 GMT 52.946606 38.756001 37,000 169 465 64
2020-04-01 13:53:42 GMT 52.956524 38.752781 37,000 168 465 0
2020-04-01 13:53:39 GMT 52.963505 38.750584 37,000 168 465 0
2020-04-01 13:53:32 GMT 52.979519 38.745403 37,000 168 465 0
2020-04-01 13:53:26 GMT 52.988598 38.742500 37,000 168 465 -64
2020-04-01 13:53:19 GMT 53.004192 38.737480 37,025 169 465 -64
2020-04-01 13:53:16 GMT 53.010818 38.735352 37,025 169 465 -64
2020-04-01 13:53:09 GMT 53.025467 38.730652 37,025 169 465 -64
2020-04-01 13:53:06 GMT 53.031693 38.728714 37,025 169 464 -64
2020-04-01 13:53:00 GMT 53.046249 38.724060 37,025 169 464 0
2020-04-01 13:52:54 GMT 53.056656 38.720764 37,025 169 464 64
2020-04-01 13:52:48 GMT 53.069271 38.716682 37,025 169 465 0
2020-04-01 13:52:45 GMT 53.078537 38.713703 37,025 169 465 0
2020-04-01 13:52:38 GMT 53.091385 38.709541 37,000 169 465 64
2020-04-01 13:52:34 GMT 53.099716 38.706875 37,000 169 465 0
2020-04-01 13:52:28 GMT 53.114147 38.702248 37,000 169 465 0
2020-04-01 13:52:25 GMT 53.118668 38.700832 37,025 169 465 0
2020-04-01 13:52:22 GMT 53.124065 38.699097 37,025 169 465 0
2020-04-01 13:52:18 GMT 53.132256 38.696514 37,000 169 465 0
2020-04-01 13:52:15 GMT 53.139954 38.694004 37,000 169 465 0
2020-04-01 13:52:12 GMT 53.146362 38.691990 37,000 169 465 0
2020-04-01 13:52:09 GMT 53.153870 38.689610 37,000 169 464 0
2020-04-01 13:52:05 GMT 53.161240 38.687256 37,000 168 464 64
2020-04-01 13:52:02 GMT 53.168198 38.684978 37,000 168 464 64
2020-04-01 13:51:57 GMT 53.178085 38.681763 37,000 168 465 0
2020-04-01 13:51:54 GMT 53.183231 38.680115 37,000 168 464 0
2020-04-01 13:51:51 GMT 53.190720 38.677681 37,000 168 464 0
2020-04-01 13:51:47 GMT 53.199554 38.674778 37,000 168 465 0
2020-04-01 13:51:44 GMT 53.205460 38.672894 37,000 169 464 64
2020-04-01 13:51:37 GMT 53.219559 38.668343 37,000 169 464 64
2020-04-01 13:51:33 GMT 53.226929 38.665989 36,975 168 464 64
2020-04-01 13:51:28 GMT 53.240070 38.661697 36,975 168 464 64
2020-04-01 13:51:23 GMT 53.251011 38.658142 36,975 168 464 0
2020-04-01 13:51:18 GMT 53.260647 38.654991 36,975 168 464 0
2020-04-01 13:51:12 GMT 53.274521 38.650467 36,975 168 463 128
2020-04-01 13:51:09 GMT 53.279068 38.648960 36,950 168 463 128
2020-04-01 13:51:01 GMT 53.298916 38.642471 36,975 168 464 -64
2020-04-01 13:50:57 GMT 53.304062 38.640800 36,975 168 463 -64
2020-04-01 13:50:52 GMT 53.314232 38.637543 36,975 169 463 -64
2020-04-01 13:50:49 GMT 53.322510 38.634834 36,975 169 463 -64
2020-04-01 13:50:46 GMT 53.326721 38.633499 36,975 169 462 -64
2020-04-01 13:50:41 GMT 53.336250 38.630352 36,975 169 462 -64
2020-04-01 13:50:37 GMT 53.346539 38.627041 36,975 169 461 128
2020-04-01 13:50:34 GMT 53.353958 38.624714 36,975 169 461 128
2020-04-01 13:50:30 GMT 53.359291 38.623001 36,950 169 462 64
2020-04-01 13:50:27 GMT 53.368607 38.619926 36,975 169 462 0
2020-04-01 13:50:24 GMT 53.373642 38.618355 36,950 169 462 0
2020-04-01 13:50:20 GMT 53.379822 38.616299 36,950 169 462 0
2020-04-01 13:50:16 GMT 53.390579 38.612862 36,975 169 462 0
2020-04-01 13:50:13 GMT 53.394905 38.611450 36,975 169 462 0
2020-04-01 13:50:10 GMT 53.402866 38.608864 36,975 169 462 -64
2020-04-01 13:50:04 GMT 53.418274 38.603916 36,975 169 462 0
2020-04-01 13:50:00 GMT 53.423393 38.602242 36,975 169 462 0
2020-04-01 13:49:56 GMT 53.432693 38.599285 36,975 169 462 -64
2020-04-01 13:49:53 GMT 53.436569 38.598042 36,975 169 462 -64
2020-04-01 13:49:50 GMT 53.445183 38.595215 36,975 169 462 -64
2020-04-01 13:49:47 GMT 53.449677 38.593796 36,975 169 462 -64
2020-04-01 13:49:43 GMT 53.460079 38.590366 36,975 169 462 -128
2020-04-01 13:49:39 GMT 53.465836 38.588535 36,975 169 462 -128
2020-04-01 13:49:36 GMT 53.475998 38.585197 37,000 168 462 -128
2020-04-01 13:49:31 GMT 53.484146 38.582531 37,000 168 462 -64
2020-04-01 13:49:28 GMT 53.488754 38.580994 37,000 168 462 -64
2020-04-01 13:49:24 GMT 53.499043 38.577602 37,000 168 463 0
2020-04-01 13:49:21 GMT 53.507191 38.574936 37,025 168 462 0
2020-04-01 13:49:18 GMT 53.511475 38.573547 37,000 169 462 0
2020-04-01 13:49:14 GMT 53.531799 38.566875 37,025 168 463 -64
2020-04-01 13:49:09 GMT 53.531799 38.566875 37,025 168 463 -64
2020-04-01 13:49:04 GMT 53.539352 38.564445 37,025 168 463 0
2020-04-01 13:49:00 GMT 53.548061 38.561527 37,025 168 463 0
2020-04-01 13:48:57 GMT 53.555511 38.559109 37,025 168 463 0
2020-04-01 13:48:53 GMT 53.563610 38.556438 37,025 169 464 64
2020-04-01 13:48:50 GMT 53.572037 38.553772 37,025 169 464 64
2020-04-01 13:48:47 GMT 53.583298 38.550240 37,000 169 464 64
2020-04-01 13:48:37 GMT 53.598804 38.545372 37,000 169 465 0
2020-04-01 13:48:33 GMT 53.607330 38.542786 37,000 169 465 0
2020-04-01 13:48:29 GMT 53.616852 38.539803 37,000 169 466 -64
2020-04-01 13:48:26 GMT 53.621292 38.538471 37,000 169 466 -64
2020-04-01 13:48:22 GMT 53.628708 38.536270 37,025 169 466 -64
2020-04-01 13:48:16 GMT 53.643215 38.531879 37,025 169 466 -128
2020-04-01 13:48:07 GMT 53.665970 38.525051 37,050 169 466 -64
2020-04-01 13:48:04 GMT 53.669888 38.523884 37,050 169 466 -64
2020-04-01 13:47:57 GMT 53.682785 38.519844 37,050 169 466 0
2020-04-01 13:47:53 GMT 53.692513 38.516613 37,050 169 466 0
2020-04-01 13:47:50 GMT 53.698006 38.514755 37,050 168 467 0
2020-04-01 13:47:47 GMT 53.705933 38.511944 37,050 167 467 0
2020-04-01 13:47:42 GMT 53.713531 38.509121 37,025 167 468 0
2020-04-01 13:47:38 GMT 53.721840 38.505947 37,025 166 469 0
2020-04-01 13:47:35 GMT 53.730377 38.502449 37,025 165 470 0
2020-04-01 13:47:32 GMT 53.736179 38.500053 37,025 165 470 0
2020-04-01 13:47:28 GMT 53.742462 38.497387 37,025 165 470 0
2020-04-01 13:47:25 GMT 53.750469 38.493992 37,025 165 470 64
2020-04-01 13:47:21 GMT 53.759171 38.490208 37,025 165 470 64
2020-04-01 13:47:18 GMT 53.764435 38.488010 37,025 165 470 64
2020-04-01 13:47:14 GMT 53.774632 38.483654 37,000 165 470 128
2020-04-01 13:47:10 GMT 53.780869 38.481026 37,000 165 471 128
2020-04-01 13:47:07 GMT 53.797626 38.473881 37,000 165 471 -64
2020-04-01 13:47:03 GMT 53.797626 38.473881 37,000 165 472 64
2020-04-01 13:47:00 GMT 53.803539 38.471455 37,000 165 472 64
2020-04-01 13:46:55 GMT 53.815365 38.466446 37,000 166 471 0
2020-04-01 13:46:52 GMT 53.818863 38.464939 37,000 166 471 0
2020-04-01 13:46:46 GMT 53.832184 38.459370 37,000 165 471 64
2020-04-01 13:46:42 GMT 53.840923 38.455624 37,000 165 472 64
2020-04-01 13:46:36 GMT 53.855164 38.449558 36,975 165 472 0
2020-04-01 13:46:33 GMT 53.858471 38.448189 37,000 165 471 0
2020-04-01 13:46:30 GMT 53.864685 38.445557 37,000 165 471 0
2020-04-01 13:46:26 GMT 53.874252 38.441486 37,000 165 471 0
2020-04-01 13:46:23 GMT 53.884399 38.437202 37,000 165 471 0
2020-04-01 13:46:20 GMT 53.886841 38.436138 37,000 165 471 0
2020-04-01 13:46:16 GMT 53.896500 38.431980 37,000 165 470 64
2020-04-01 13:46:13 GMT 53.901581 38.429863 37,000 165 470 64
2020-04-01 13:46:09 GMT 53.909866 38.426296 36,975 165 470 0
2020-04-01 13:46:05 GMT 53.919361 38.422260 36,975 165 470 0
2020-04-01 13:46:02 GMT 53.926716 38.419109 36,975 165 471 0
2020-04-01 13:45:59 GMT 53.933281 38.416363 37,000 165 471 -64
2020-04-01 13:45:55 GMT 53.937889 38.414345 37,000 165 471 -64
2020-04-01 13:45:51 GMT 53.947906 38.410088 37,000 165 470 -64
2020-04-01 13:45:48 GMT 53.954453 38.407261 37,000 165 470 -64
2020-04-01 13:45:45 GMT 53.958847 38.405376 37,000 165 470 0
2020-04-01 13:45:42 GMT 53.966331 38.402225 37,000 165 470 0
2020-04-01 13:45:38 GMT 53.976437 38.397861 37,000 165 470 0
2020-04-01 13:45:35 GMT 53.980392 38.396168 37,000 165 470 0
2020-04-01 13:45:31 GMT 53.989239 38.392368 37,000 165 470 -64
2020-04-01 13:45:28 GMT 53.997757 38.388741 37,000 165 470 -64
2020-04-01 13:45:25 GMT 54.002087 38.386875 37,000 165 470 -128
2020-04-01 13:45:21 GMT 54.010803 38.383091 37,025 165 470 -128
2020-04-01 13:45:18 GMT 54.015537 38.381142 37,025 165 470 -64
2020-04-01 13:45:15 GMT 54.022896 38.377991 37,025 165 469 0
2020-04-01 13:45:11 GMT 54.030762 38.374615 37,025 165 469 64
2020-04-01 13:45:07 GMT 54.041981 38.369751 37,025 165 469 0
2020-04-01 13:45:04 GMT 54.045044 38.368416 37,025 165 469 0
2020-04-01 13:45:00 GMT 54.053574 38.364822 37,025 165 469 0
2020-04-01 13:44:57 GMT 54.059856 38.362076 37,025 165 469 64
2020-04-01 13:44:54 GMT 54.067932 38.358608 37,025 165 469 64
2020-04-01 13:44:51 GMT 54.076012 38.355129 37,025 165 470 0
2020-04-01 13:44:48 GMT 54.081505 38.352787 37,025 165 470 -64
2020-04-01 13:44:44 GMT 54.087891 38.350056 37,025 165 469 0
2020-04-01 13:44:40 GMT 54.100220 38.344707 37,025 165 470 0
2020-04-01 13:44:37 GMT 54.104595 38.342770 37,025 165 470 0
2020-04-01 13:44:34 GMT 54.109955 38.340481 37,025 165 469 64
2020-04-01 13:44:31 GMT 54.117554 38.337185 37,025 165 470 0
2020-04-01 13:44:27 GMT 54.124283 38.334282 37,025 165 470 0
2020-04-01 13:44:23 GMT 54.133827 38.330170 37,000 165 470 0
2020-04-01 13:44:20 GMT 54.138672 38.328068 37,025 165 470 -64
2020-04-01 13:44:15 GMT 54.152435 38.322117 37,025 165 470 -64
2020-04-01 13:44:10 GMT 54.159897 38.318859 37,025 165 470 0
2020-04-01 13:44:06 GMT 54.168411 38.315212 37,025 165 469 64
2020-04-01 13:44:02 GMT 54.176888 38.311508 37,000 165 469 128
2020-04-01 13:43:59 GMT 54.181915 38.309326 37,000 165 469 128
2020-04-01 13:43:56 GMT 54.191071 38.305401 37,000 165 469 64
2020-04-01 13:43:50 GMT 54.203018 38.300224 37,000 165 469 64
2020-04-01 13:43:44 GMT 54.215759 38.294704 37,000 165 469 0
2020-04-01 13:43:41 GMT 54.221100 38.292377 36,975 165 469 0
2020-04-01 13:43:37 GMT 54.229706 38.288609 37,000 165 469 0
2020-04-01 13:43:33 GMT 54.239182 38.284527 37,000 165 469 -64
2020-04-01 13:43:30 GMT 54.246094 38.281548 37,000 165 469 0
2020-04-01 13:43:27 GMT 54.252491 38.278790 37,000 165 469 128
2020-04-01 13:43:22 GMT 54.261940 38.274754 36,975 166 468 128
2020-04-01 13:43:19 GMT 54.267387 38.272408 36,975 166 468 128
2020-04-01 13:43:16 GMT 54.273903 38.269661 36,975 166 468 64
2020-04-01 13:43:12 GMT 54.285141 38.264896 36,975 166 469 0
2020-04-01 13:43:09 GMT 54.289536 38.263039 36,975 166 469 0
2020-04-01 13:43:06 GMT 54.295853 38.260372 36,975 166 469 0
2020-04-01 13:42:59 GMT 54.307663 38.255444 36,975 166 469 0
2020-04-01 13:42:56 GMT 54.314686 38.252563 36,975 166 469 0
2020-04-01 13:42:53 GMT 54.320892 38.249950 36,975 166 468 -64
2020-04-01 13:42:48 GMT 54.332611 38.244701 36,975 164 469 -128
2020-04-01 13:42:45 GMT 54.338566 38.241825 36,975 163 469 -128
2020-04-01 13:42:42 GMT 54.343361 38.239494 36,975 163 469 -64
2020-04-01 13:42:39 GMT 54.352753 38.234524 37,000 162 469 -64
2020-04-01 13:42:36 GMT 54.358337 38.231453 37,000 161 469 0
2020-04-01 13:42:33 GMT 54.364590 38.227928 37,000 161 469 0
2020-04-01 13:42:28 GMT 54.375595 38.221596 37,000 161 469 64
2020-04-01 13:42:25 GMT 54.381729 38.218124 36,975 161 468 64
2020-04-01 13:42:22 GMT 54.386143 38.215611 36,975 161 468 64
2020-04-01 13:42:19 GMT 54.392704 38.211864 36,975 161 469 0
2020-04-01 13:42:16 GMT 54.397751 38.208996 36,975 161 469 -64
2020-04-01 13:42:12 GMT 54.404938 38.204876 36,975 161 470 -64
2020-04-01 13:42:09 GMT 54.412258 38.200710 37,000 161 469 -64
2020-04-01 13:42:06 GMT 54.420265 38.196049 37,000 161 469 -64
2020-04-01 13:42:02 GMT 54.427551 38.191868 37,000 161 468 0
2020-04-01 13:41:59 GMT 54.432789 38.188892 37,000 161 468 0
2020-04-01 13:41:56 GMT 54.437988 38.185890 37,000 161 468 0
2020-04-01 13:41:53 GMT 54.446938 38.180820 37,000 161 469 -64
2020-04-01 13:41:50 GMT 54.450012 38.178989 37,000 161 469 -64
2020-04-01 13:41:46 GMT 54.460068 38.173244 37,000 161 468 0
2020-04-01 13:41:41 GMT 54.482162 38.160606 37,000 161 469 0
2020-04-01 13:41:36 GMT 54.482162 38.160606 37,000 161 469 -64
2020-04-01 13:41:32 GMT 54.489349 38.156567 37,000 161 470 -64
2020-04-01 13:41:29 GMT 54.496658 38.152355 37,025 161 470 -128
2020-04-01 13:41:25 GMT 54.504181 38.148006 37,025 161 469 -128
2020-04-01 13:41:22 GMT 54.510956 38.144127 37,025 161 469 -64
2020-04-01 13:41:18 GMT 54.516907 38.140656 37,025 161 469 -64
2020-04-01 13:41:15 GMT 54.522354 38.137459 37,050 161 469 -64
2020-04-01 13:41:11 GMT 54.531693 38.132092 37,050 161 469 64
2020-04-01 13:41:08 GMT 54.538010 38.128376 37,050 161 468 64
2020-04-01 13:41:04 GMT 54.548309 38.122314 37,025 161 469 64
2020-04-01 13:41:01 GMT 54.556091 38.117790 37,025 161 469 64
2020-04-01 13:40:57 GMT 54.559269 38.115982 37,025 161 470 64
2020-04-01 13:40:53 GMT 54.570999 38.109158 37,000 161 470 64
2020-04-01 13:40:49 GMT 54.585014 38.101086 37,000 161 472 64
2020-04-01 13:40:45 GMT 54.585014 38.101086 37,000 161 471 64
2020-04-01 13:40:41 GMT 54.593487 38.096176 37,000 161 471 64
2020-04-01 13:40:38 GMT 54.601410 38.091618 37,000 161 471 128
2020-04-01 13:40:35 GMT 54.608334 38.087601 37,000 161 471 128
2020-04-01 13:40:31 GMT 54.613586 38.084591 36,975 161 472 128
2020-04-01 13:40:27 GMT 54.628464 38.076027 36,975 161 472 64
2020-04-01 13:40:21 GMT 54.635197 38.072205 37,000 161 472 -64
2020-04-01 13:40:18 GMT 54.641693 38.068436 36,975 161 472 -64
2020-04-01 13:40:15 GMT 54.647999 38.064796 36,975 161 472 0
2020-04-01 13:40:11 GMT 54.655930 38.060196 37,000 161 471 0
2020-04-01 13:40:08 GMT 54.662979 38.056156 37,000 161 471 64
2020-04-01 13:40:01 GMT 54.679459 38.046543 36,975 161 471 0
2020-04-01 13:39:57 GMT 54.687469 38.041859 36,975 161 471 0
2020-04-01 13:39:54 GMT 54.690582 38.040081 36,975 161 471 0
2020-04-01 13:39:49 GMT 54.702232 38.033253 36,975 161 471 0
2020-04-01 13:39:46 GMT 54.712101 38.027512 36,975 161 471 0
2020-04-01 13:39:38 GMT 54.723225 38.020935 36,975 161 470 -64
2020-04-01 13:39:34 GMT 54.733017 38.015282 37,000 161 470 0
2020-04-01 13:39:29 GMT 54.743912 38.008900 37,000 161 470 0
2020-04-01 13:39:26 GMT 54.748363 38.006371 37,000 161 470 0
2020-04-01 13:39:23 GMT 54.753719 38.003208 37,000 161 470 0
2020-04-01 13:39:19 GMT 54.760986 37.998962 37,000 161 470 -64
2020-04-01 13:39:16 GMT 54.768520 37.994633 37,000 161 470 0
2020-04-01 13:39:12 GMT 54.775318 37.990639 37,000 161 470 0
2020-04-01 13:39:07 GMT 54.789936 37.982151 37,000 161 470 0
2020-04-01 13:39:03 GMT 54.797104 37.977989 37,000 161 470 0
2020-04-01 13:38:58 GMT 54.804554 37.973743 37,000 161 470 0
2020-04-01 13:38:55 GMT 54.811954 37.969418 37,000 161 470 -64
2020-04-01 13:38:52 GMT 54.819775 37.964836 37,000 161 470 -64
2020-04-01 13:38:48 GMT 54.825027 37.961723 37,000 161 470 0
2020-04-01 13:38:45 GMT 54.834579 37.956181 37,000 161 470 0
2020-04-01 13:38:42 GMT 54.838348 37.953884 37,000 161 470 0
2020-04-01 13:38:39 GMT 54.846405 37.949200 37,000 161 471 -64
2020-04-01 13:38:35 GMT 54.852951 37.945324 37,000 161 470 0
2020-04-01 13:38:31 GMT 54.862930 37.939453 37,000 161 470 0
2020-04-01 13:38:28 GMT 54.867680 37.936707 37,000 161 470 0
2020-04-01 13:38:24 GMT 54.877968 37.930714 37,000 161 470 0
2020-04-01 13:38:21 GMT 54.884216 37.927067 37,000 161 471 0
2020-04-01 13:38:18 GMT 54.888565 37.924480 37,000 161 471 -64
2020-04-01 13:38:15 GMT 54.895050 37.920727 37,000 161 471 -64
2020-04-01 13:38:12 GMT 54.901749 37.916889 37,000 161 471 0
2020-04-01 13:38:08 GMT 54.908039 37.913155 37,000 161 471 -64
2020-04-01 13:38:05 GMT 54.915573 37.908810 37,000 161 471 -64
2020-04-01 13:38:02 GMT 54.925232 37.903072 37,000 161 472 -64
2020-04-01 13:37:59 GMT 54.931183 37.899521 37,025 161 471 0
2020-04-01 13:37:54 GMT 54.937271 37.895924 37,025 161 471 -64
2020-04-01 13:37:51 GMT 54.943649 37.892178 37,000 161 471 64
2020-04-01 13:37:47 GMT 54.962311 37.881104 37,000 161 472 0
2020-04-01 13:37:43 GMT 54.962311 37.881104 37,000 161 472 0
2020-04-01 13:37:40 GMT 54.967346 37.878197 37,000 161 472 0
2020-04-01 13:37:36 GMT 54.974442 37.873913 37,000 161 472 64
2020-04-01 13:37:33 GMT 54.980621 37.870277 37,000 161 471 0
2020-04-01 13:37:29 GMT 54.988678 37.865513 37,000 161 472 -64
2020-04-01 13:37:26 GMT 54.997234 37.860386 37,000 161 472 -64
2020-04-01 13:37:22 GMT 55.009094 37.853394 37,000 161 472 0
2020-04-01 13:37:18 GMT 55.012573 37.851292 37,000 161 472 0
2020-04-01 13:37:14 GMT 55.020996 37.846203 37,000 161 471 64
2020-04-01 13:37:11 GMT 55.027405 37.842407 37,000 161 472 0
2020-04-01 13:37:05 GMT 55.038712 37.835701 37,000 161 472 -64
2020-04-01 13:37:01 GMT 55.047882 37.830257 37,000 161 472 -64
2020-04-01 13:36:58 GMT 55.063335 37.821098 37,025 161 472 -64
2020-04-01 13:36:53 GMT 55.063335 37.821098 37,025 161 472 0
2020-04-01 13:36:49 GMT 55.073021 37.815357 37,025 161 471 0
2020-04-01 13:36:46 GMT 55.078903 37.811871 37,000 161 471 0
2020-04-01 13:36:43 GMT 55.084076 37.808884 37,025 161 471 0
2020-04-01 13:36:39 GMT 55.091492 37.804520 37,000 161 471 0
2020-04-01 13:36:36 GMT 55.096947 37.801292 37,000 161 471 0
2020-04-01 13:36:33 GMT 55.105606 37.796131 37,000 161 471 64
2020-04-01 13:36:30 GMT 55.110680 37.793137 37,000 161 471 64
2020-04-01 13:36:27 GMT 55.118362 37.788643 37,000 161 472 64
2020-04-01 13:36:23 GMT 55.132050 37.780529 37,000 161 472 64
2020-04-01 13:36:20 GMT 55.132050 37.780529 37,000 161 472 0
2020-04-01 13:36:17 GMT 55.139282 37.776245 37,000 161 471 0
2020-04-01 13:36:14 GMT 55.144337 37.773243 37,000 161 471 0
2020-04-01 13:36:11 GMT 55.148666 37.770744 37,000 161 471 64
2020-04-01 13:36:08 GMT 55.157326 37.765671 37,000 161 471 0
2020-04-01 13:36:05 GMT 55.162766 37.762432 37,000 161 471 64
2020-04-01 13:36:02 GMT 55.168266 37.759178 37,000 161 472 0
2020-04-01 13:35:58 GMT 55.178974 37.752769 37,000 161 471 0
2020-04-01 13:35:54 GMT 55.187485 37.747650 37,000 161 471 -64
2020-04-01 13:35:51 GMT 55.191727 37.745113 37,000 161 471 -64
2020-04-01 13:35:47 GMT 55.199661 37.740379 37,000 161 472 -128
2020-04-01 13:35:41 GMT 55.211281 37.733459 37,025 161 471 -64
2020-04-01 13:35:38 GMT 55.219208 37.728748 37,025 161 471 -64
2020-04-01 13:35:35 GMT 55.224564 37.725597 37,025 161 471 -64
2020-04-01 13:35:30 GMT 55.234863 37.719456 37,025 161 471 -64
2020-04-01 13:35:27 GMT 55.242874 37.714611 37,025 161 471 -64
2020-04-01 13:35:23 GMT 55.249054 37.710896 37,025 160 470 -64
2020-04-01 13:35:20 GMT 55.256241 37.706612 37,050 160 470 -64
2020-04-01 13:35:16 GMT 55.263512 37.702164 37,025 160 470 -64
2020-04-01 13:35:13 GMT 55.271519 37.697254 37,050 160 471 -64
2020-04-01 13:35:10 GMT 55.274174 37.695675 37,050 160 471 -64
2020-04-01 13:35:07 GMT 55.281281 37.691345 37,025 161 471 64
2020-04-01 13:35:03 GMT 55.292702 37.684437 37,025 160 470 128
2020-04-01 13:34:59 GMT 55.298843 37.680775 37,025 160 471 64
2020-04-01 13:34:55 GMT 55.306549 37.676079 37,025 161 471 64
2020-04-01 13:34:50 GMT 55.316303 37.670204 37,025 161 471 0
2020-04-01 13:34:47 GMT 55.322495 37.666458 37,025 161 472 -64
2020-04-01 13:34:43 GMT 55.333099 37.660084 37,025 161 472 0
2020-04-01 13:34:40 GMT 55.338367 37.656971 37,000 161 471 0
2020-04-01 13:34:37 GMT 55.344223 37.653458 37,025 161 471 64
2020-04-01 13:34:34 GMT 55.361115 37.643360 37,025 161 471 0
2020-04-01 13:34:29 GMT 55.361115 37.643360 37,025 161 471 0
2020-04-01 13:34:25 GMT 55.368942 37.638676 37,000 161 471 0
2020-04-01 13:34:21 GMT 55.378078 37.633167 37,000 161 471 64
2020-04-01 13:34:18 GMT 55.383430 37.630005 37,000 161 471 64
2020-04-01 13:34:14 GMT 55.392277 37.624680 37,000 161 471 0
2020-04-01 13:34:10 GMT 55.398235 37.621098 37,025 161 471 -64
2020-04-01 13:34:06 GMT 55.410618 37.613693 37,025 161 471 0
2020-04-01 13:34:02 GMT 55.415039 37.610966 37,025 161 471 0
2020-04-01 13:33:59 GMT 55.421402 37.607170 37,025 160 470 0
2020-04-01 13:33:56 GMT 55.428074 37.603123 37,025 161 471 0
2020-04-01 13:33:52 GMT 55.436501 37.598045 37,025 161 471 -64
2020-04-01 13:33:49 GMT 55.441853 37.594799 37,025 161 471 0
2020-04-01 13:33:45 GMT 55.453674 37.587723 37,025 161 471 0
2020-04-01 13:33:41 GMT 55.459625 37.584061 37,025 161 471 -64
2020-04-01 13:33:38 GMT 55.463638 37.581654 37,025 161 471 -64
2020-04-01 13:33:35 GMT 55.480118 37.571781 37,025 161 470 0
2020-04-01 13:33:31 GMT 55.480118 37.571781 37,025 160 470 0
2020-04-01 13:33:27 GMT 55.489571 37.566032 37,025 161 471 -64
2020-04-01 13:33:24 GMT 55.494781 37.562923 37,050 161 470 -64
2020-04-01 13:33:21 GMT 55.501968 37.558510 37,050 160 470 -64
2020-04-01 13:33:18 GMT 55.506912 37.555515 37,025 160 470 0
2020-04-01 13:33:13 GMT 55.516937 37.549355 37,025 160 470 64
2020-04-01 13:33:10 GMT 55.521240 37.546692 37,025 160 470 64
2020-04-01 13:33:07 GMT 55.529846 37.541447 37,025 160 470 0
2020-04-01 13:33:03 GMT 55.544220 37.532627 37,025 160 470 64
2020-04-01 13:33:00 GMT 55.544220 37.532627 37,025 160 470 64
2020-04-01 13:32:57 GMT 55.549118 37.529549 37,025 160 470 0
2020-04-01 13:32:54 GMT 55.555481 37.525719 37,025 160 470 0
2020-04-01 13:32:50 GMT 55.563675 37.520641 37,025 160 469 64
2020-04-01 13:32:47 GMT 55.569397 37.517143 37,025 160 470 64
2020-04-01 13:32:43 GMT 55.576714 37.512733 37,025 160 469 64
2020-04-01 13:32:40 GMT 55.583954 37.508240 37,025 160 469 64
2020-04-01 13:32:37 GMT 55.588257 37.505661 37,000 160 469 64
2020-04-01 13:32:34 GMT 55.594620 37.501831 37,000 160 469 128
2020-04-01 13:32:29 GMT 55.607811 37.493763 37,000 160 469 128
2020-04-01 13:32:25 GMT 55.619202 37.486851 37,000 161 469 64
2020-04-01 13:32:20 GMT 55.626572 37.482353 36,975 160 469 64
2020-04-01 13:32:16 GMT 55.633228 37.478313 36,975 160 469 64
2020-04-01 13:32:12 GMT 55.640305 37.474033 36,975 160 469 0
2020-04-01 13:32:09 GMT 55.647858 37.469372 36,975 160 468 0
2020-04-01 13:32:05 GMT 55.654816 37.465126 36,975 160 469 64
2020-04-01 13:32:02 GMT 55.662464 37.460461 36,975 160 469 64
2020-04-01 13:31:57 GMT 55.672707 37.454193 36,975 160 468 -64
2020-04-01 13:31:54 GMT 55.677109 37.451477 36,975 160 468 0
2020-04-01 13:31:50 GMT 55.686676 37.445652 36,975 160 467 64
2020-04-01 13:31:46 GMT 55.695465 37.440243 36,975 161 467 64
2020-04-01 13:31:43 GMT 55.701473 37.436600 36,950 161 467 0
2020-04-01 13:31:39 GMT 55.708099 37.432583 36,950 161 467 0
2020-04-01 13:31:36 GMT 55.714512 37.428616 36,950 161 467 0
2020-04-01 13:31:29 GMT 55.729660 37.419350 36,975 160 466 0
2020-04-01 13:31:25 GMT 55.736801 37.415024 36,975 160 466 0
2020-04-01 13:31:22 GMT 55.742661 37.411362 36,975 160 465 64
2020-04-01 13:31:18 GMT 55.751038 37.406284 36,950 160 465 64
2020-04-01 13:31:15 GMT 55.759014 37.401321 36,950 160 465 0
2020-04-01 13:31:11 GMT 55.765228 37.397545 36,950 160 464 -64
2020-04-01 13:31:08 GMT 55.771210 37.393768 36,950 160 465 -64
2020-04-01 13:31:05 GMT 55.779125 37.388878 36,950 160 465 -64
2020-04-01 13:31:02 GMT 55.784386 37.385616 36,950 160 464 0
2020-04-01 13:30:58 GMT 55.793793 37.379814 36,975 160 464 -64
2020-04-01 13:30:54 GMT 55.798351 37.376945 36,950 160 464 0
2020-04-01 13:30:51 GMT 55.804821 37.372997 36,950 160 464 -64
2020-04-01 13:30:48 GMT 55.819336 37.364002 36,975 160 464 0
2020-04-01 13:30:45 GMT 55.819336 37.364002 36,975 160 464 0
2020-04-01 13:30:41 GMT 55.827209 37.359177 36,975 160 464 -64
2020-04-01 13:30:37 GMT 55.835129 37.354263 36,975 160 464 0
2020-04-01 13:30:34 GMT 55.841503 37.350342 36,975 160 464 0
2020-04-01 13:30:30 GMT 55.850582 37.344761 36,975 160 464 64
2020-04-01 13:30:27 GMT 55.853653 37.342873 36,975 160 464 64
2020-04-01 13:30:24 GMT 55.862125 37.337551 36,975 160 464 64
2020-04-01 13:30:20 GMT 55.869919 37.332706 36,975 160 464 -64
2020-04-01 13:30:15 GMT 55.880142 37.326393 36,975 160 465 -64
2020-04-01 13:30:12 GMT 55.886353 37.322636 36,975 160 465 -64
2020-04-01 13:30:09 GMT 55.891205 37.319641 36,975 160 464 -64
2020-04-01 13:30:06 GMT 55.896286 37.316479 37,000 160 464 -64
2020-04-01 13:30:02 GMT 55.906586 37.310070 37,000 160 464 -128
2020-04-01 13:29:58 GMT 55.914406 37.305195 37,000 160 464 -64
2020-04-01 13:29:55 GMT 55.918270 37.302876 37,000 160 463 -64
2020-04-01 13:29:52 GMT 55.926041 37.298000 37,000 160 465 -64
2020-04-01 13:29:46 GMT 55.938629 37.290176 37,000 160 465 0
2020-04-01 13:29:43 GMT 55.941776 37.288197 37,000 160 466 64
2020-04-01 13:29:39 GMT 55.953743 37.280731 37,000 160 466 0
2020-04-01 13:29:34 GMT 55.962868 37.275066 37,000 160 467 -64
2020-04-01 13:29:27 GMT 55.976807 37.266293 37,000 160 470 0
2020-04-01 13:29:23 GMT 55.984837 37.261250 37,000 160 467 -64
2020-04-01 13:29:19 GMT 55.993057 37.256138 37,000 160 467 0
2020-04-01 13:29:16 GMT 56.004997 37.248631 37,000 160 468 0
2020-04-01 13:29:13 GMT 56.004997 37.248631 37,000 160 468 64
2020-04-01 13:29:06 GMT 56.017548 37.240822 37,000 160 468 0
2020-04-01 13:29:03 GMT 56.024689 37.236328 37,000 160 469 64
2020-04-01 13:29:00 GMT 56.029587 37.233250 36,975 160 469 64
2020-04-01 13:28:57 GMT 56.035580 37.229488 36,975 160 469 64
2020-04-01 13:28:54 GMT 56.044876 37.223679 36,975 160 469 64
2020-04-01 13:28:51 GMT 56.050003 37.220512 36,975 160 470 64
2020-04-01 13:28:48 GMT 56.054436 37.217815 36,975 160 470 64
2020-04-01 13:28:43 GMT 56.066803 37.210110 36,975 160 470 64
2020-04-01 13:28:37 GMT 56.080223 37.201767 36,975 160 471 64
2020-04-01 13:28:34 GMT 56.086304 37.197960 36,975 160 471 64
2020-04-01 13:28:31 GMT 56.092026 37.194382 36,975 160 471 0
2020-04-01 13:28:24 GMT 56.104752 37.186390 36,975 160 471 -128
2020-04-01 13:28:21 GMT 56.110886 37.182564 36,975 160 471 -128
2020-04-01 13:28:18 GMT 56.118301 37.177902 37,000 160 470 0
2020-04-01 13:28:15 GMT 56.125751 37.173183 37,000 160 470 0
2020-04-01 13:28:11 GMT 56.131523 37.169495 37,000 160 470 0
2020-04-01 13:28:08 GMT 56.137527 37.165749 37,000 160 470 0
2020-04-01 13:28:04 GMT 56.146133 37.160255 37,000 160 470 0
2020-04-01 13:28:01 GMT 56.152195 37.156448 37,000 160 472 64
2020-04-01 13:27:57 GMT 56.160095 37.151516 37,000 160 472 64
2020-04-01 13:27:54 GMT 56.166458 37.147438 37,000 160 472 64
2020-04-01 13:27:51 GMT 56.172592 37.143528 36,975 160 472 64
2020-04-01 13:27:47 GMT 56.180420 37.138535 36,975 160 473 -64
2020-04-01 13:27:43 GMT 56.188316 37.133533 37,000 160 474 -192
2020-04-01 13:27:40 GMT 56.196671 37.128212 37,000 160 474 -192
2020-04-01 13:27:37 GMT 56.203167 37.124088 37,000 160 474 -128
2020-04-01 13:27:33 GMT 56.209671 37.119972 37,025 160 474 -128
2020-04-01 13:27:30 GMT 56.214203 37.117062 37,025 160 474 -128
2020-04-01 13:27:26 GMT 56.222672 37.111732 37,025 160 474 -64
2020-04-01 13:27:21 GMT 56.235756 37.103405 37,025 160 475 -64
2020-04-01 13:27:16 GMT 56.243809 37.098343 37,025 160 475 -64
2020-04-01 13:27:13 GMT 56.251968 37.093174 37,025 160 475 -64
2020-04-01 13:27:10 GMT 56.258377 37.089096 37,050 160 475 -64
2020-04-01 13:27:06 GMT 56.270782 37.081188 37,050 160 477 64
2020-04-01 13:27:03 GMT 56.270782 37.081188 37,050 160 475 0
2020-04-01 13:26:59 GMT 56.279068 37.075943 37,050 160 475 0
2020-04-01 13:26:56 GMT 56.286449 37.071304 37,050 160 475 0
2020-04-01 13:26:52 GMT 56.293480 37.066841 37,050 160 476 0
2020-04-01 13:26:49 GMT 56.299622 37.062962 37,025 160 476 64
2020-04-01 13:26:45 GMT 56.308002 37.057655 37,025 160 477 64
2020-04-01 13:26:40 GMT 56.321411 37.049145 37,025 160 478 64
2020-04-01 13:26:35 GMT 56.328812 37.044437 37,025 160 478 64
2020-04-01 13:26:28 GMT 56.347107 37.032852 37,025 160 479 -64
2020-04-01 13:26:23 GMT 56.356930 37.026588 37,025 160 480 -128
2020-04-01 13:26:19 GMT 56.363525 37.022343 37,025 160 479 -64
2020-04-01 13:26:16 GMT 56.372910 37.016434 37,025 160 479 0
2020-04-01 13:26:12 GMT 56.378017 37.013111 37,025 160 480 0
2020-04-01 13:26:08 GMT 56.386871 37.007530 37,025 160 481 64
2020-04-01 13:26:04 GMT 56.393143 37.003532 37,025 160 480 128
2020-04-01 13:25:59 GMT 56.406418 36.995087 37,025 160 480 64
2020-04-01 13:25:52 GMT 56.420010 36.986504 37,025 160 481 64
2020-04-01 13:25:48 GMT 56.428154 36.981270 37,025 160 481 64
2020-04-01 13:25:42 GMT 56.441143 36.972942 37,000 160 482 0
2020-04-01 13:25:38 GMT 56.448078 36.968479 37,000 160 482 0
2020-04-01 13:25:31 GMT 56.463627 36.958523 37,000 160 483 0
2020-04-01 13:25:27 GMT 56.472473 36.952858 37,000 160 483 0
2020-04-01 13:25:22 GMT 56.483784 36.945560 37,000 160 483 0
2020-04-01 13:25:18 GMT 56.501312 36.934204 37,000 160 482 64
2020-04-01 13:25:13 GMT 56.501312 36.934204 37,000 160 482 0
2020-04-01 13:25:10 GMT 56.507629 36.930210 37,000 160 483 64
2020-04-01 13:25:07 GMT 56.515907 36.924789 37,000 160 483 64
2020-04-01 13:25:02 GMT 56.526382 36.918011 37,000 160 483 0
2020-04-01 13:24:58 GMT 56.532578 36.913979 37,000 160 483 0
2020-04-01 13:24:55 GMT 56.542114 36.907799 37,000 160 483 0
2020-04-01 13:24:51 GMT 56.547375 36.904366 37,000 160 483 0
2020-04-01 13:24:47 GMT 56.555878 36.898830 37,000 160 483 0
2020-04-01 13:24:44 GMT 56.564026 36.893421 37,000 160 482 64
2020-04-01 13:24:41 GMT 56.570114 36.889427 37,000 160 482 64
2020-04-01 13:24:37 GMT 56.578796 36.883762 37,000 160 482 -64
2020-04-01 13:24:32 GMT 56.588333 36.877609 36,975 160 482 0
2020-04-01 13:24:29 GMT 56.592957 36.874527 37,000 160 482 -64
2020-04-01 13:24:26 GMT 56.600098 36.869862 37,000 160 482 -128
2020-04-01 13:24:21 GMT 56.611588 36.862392 37,000 160 482 0
2020-04-01 13:24:16 GMT 56.620789 36.856297 37,000 160 482 0
2020-04-01 13:24:09 GMT 56.636719 36.846001 36,975 160 483 0
2020-04-01 13:24:06 GMT 56.641830 36.842651 37,000 160 482 64
2020-04-01 13:24:00 GMT 56.655991 36.833553 36,975 160 482 0
2020-04-01 13:23:56 GMT 56.676819 36.820335 36,975 160 482 0
2020-04-01 13:23:49 GMT 56.676819 36.820335 36,975 160 482 64
2020-04-01 13:23:45 GMT 56.687450 36.813591 36,975 160 482 64
2020-04-01 13:23:39 GMT 56.699707 36.805744 36,975 160 482 64
2020-04-01 13:23:36 GMT 56.704163 36.802692 36,975 158 483 0
2020-04-01 13:23:33 GMT 56.709229 36.798965 37,025 135 487 -64
2020-04-01 13:23:29 GMT 56.717789 36.792011 36,975 153 484 64
2020-04-01 13:23:23 GMT 56.729691 36.780682 36,975 150 485 0
2020-04-01 13:23:20 GMT 56.737637 36.772038 36,975 146 486 -128
2020-04-01 13:23:16 GMT 56.745689 36.762291 36,975 144 487 -128
2020-04-01 13:23:09 GMT 56.756626 36.747318 37,000 141 487 0
2020-04-01 13:23:03 GMT 56.766769 36.732018 36,975 139 486 64
2020-04-01 13:22:57 GMT 56.776062 36.717255 37,000 138 487 -128
2020-04-01 13:22:52 GMT 56.784466 36.703373 37,025 135 487 -64
2020-04-01 13:22:47 GMT 56.794189 36.686611 37,000 136 488 -128
2020-04-01 13:22:43 GMT 56.800758 36.675022 37,025 135 487 -64
2020-04-01 13:22:39 GMT 56.807281 36.663437 37,025 135 487 -64
2020-04-01 13:22:32 GMT 56.817333 36.645428 37,025 135 487 -64
2020-04-01 13:22:28 GMT 56.823895 36.633644 37,025 135 487 0
2020-04-01 13:22:21 GMT 56.834244 36.615112 37,000 135 487 64
2020-04-01 13:22:18 GMT 56.840096 36.604584 37,025 135 487 -64
2020-04-01 13:22:12 GMT 56.849899 36.586617 37,050 134 489 -192
2020-04-01 13:22:07 GMT 56.857635 36.572285 37,050 134 489 -128
2020-04-01 13:22:02 GMT 56.867050 36.554878 37,025 134 488 128
2020-04-01 13:21:59 GMT 56.871193 36.547260 37,025 134 488 64
2020-04-01 13:21:51 GMT 56.883343 36.524670 37,025 134 489 0
2020-04-01 13:21:47 GMT 56.889450 36.513405 37,025 134 489 -64
2020-04-01 13:21:41 GMT 56.899963 36.493835 37,025 134 490 0
2020-04-01 13:21:38 GMT 56.903267 36.487633 37,025 134 490 0
2020-04-01 13:21:30 GMT 56.916256 36.463448 37,025 134 489 128
2020-04-01 13:21:27 GMT 56.919746 36.456978 37,000 134 489 128
2020-04-01 13:21:20 GMT 56.936600 36.425598 37,000 134 490 128
2020-04-01 13:21:07 GMT 56.952148 36.396378 37,000 134 490 0
2020-04-01 13:20:57 GMT 56.967911 36.366894 36,975 134 488 256
2020-04-01 13:20:49 GMT 56.981323 36.341743 37,000 134 490 64
2020-04-01 13:20:46 GMT 56.984665 36.335564 36,975 134 488 256
2020-04-01 13:20:36 GMT 57.000423 36.306271 36,975 134 489 64
2020-04-01 13:20:29 GMT 57.013870 36.281403 36,975 134 490 -64
2020-04-01 13:20:26 GMT 57.017136 36.275349 36,975 134 490 -64
2020-04-01 13:20:16 GMT 57.033325 36.245613 36,975 135 490 0
2020-04-01 13:20:08 GMT 57.046837 36.220947 37,000 135 489 -192
2020-04-01 13:20:05 GMT 57.050186 36.214748 37,000 135 489 -128
2020-04-01 13:19:55 GMT 57.065735 36.186218 37,000 135 488 -64
2020-04-01 13:19:45 GMT 57.083843 36.153172 37,000 135 487 64
2020-04-01 13:19:35 GMT 57.098881 36.125793 37,000 135 488 0
2020-04-01 13:19:27 GMT 57.111694 36.102188 37,000 134 488 -64
2020-04-01 13:19:23 GMT 57.117920 36.090775 37,000 134 489 -64
2020-04-01 13:19:17 GMT 57.128448 36.071377 37,000 134 488 64
2020-04-01 13:19:12 GMT 57.135052 36.059254 37,000 135 488 64
2020-04-01 13:19:05 GMT 57.145573 36.039940 37,000 135 487 64
2020-04-01 13:18:55 GMT 57.162415 36.009064 37,000 135 489 -128
2020-04-01 13:18:49 GMT 57.172340 35.990768 37,025 135 487 64
2020-04-01 13:18:46 GMT 57.177322 35.981644 37,025 135 487 64
2020-04-01 13:18:35 GMT 57.194824 35.949570 37,000 135 487 64
2020-04-01 13:18:23 GMT 57.214005 35.914307 37,000 134 490 -192
2020-04-01 13:18:13 GMT 57.229706 35.885296 37,025 134 489 64
2020-04-01 13:18:03 GMT 57.245239 35.856628 37,000 134 488 128
2020-04-01 13:17:52 GMT 57.262161 35.825298 37,000 134 489 0
2020-04-01 13:17:43 GMT 57.278687 35.794487 37,025 134 488 -64
2020-04-01 13:17:32 GMT 57.294113 35.765903 37,025 134 487 64
2020-04-01 13:17:22 GMT 57.310730 35.734837 37,000 134 488 -64
2020-04-01 13:17:11 GMT 57.327267 35.703884 37,025 134 488 0
2020-04-01 13:17:02 GMT 57.343281 35.673935 37,025 134 488 0
2020-04-01 13:16:51 GMT 57.359665 35.643253 37,025 134 488 0
2020-04-01 13:16:41 GMT 57.375401 35.613689 37,025 134 487 64
2020-04-01 13:16:30 GMT 57.392120 35.582485 37,000 134 488 0
2020-04-01 13:16:21 GMT 57.408096 35.552444 37,000 134 488 64
2020-04-01 13:16:10 GMT 57.423817 35.522964 37,000 134 487 64
2020-04-01 13:16:00 GMT 57.440529 35.491333 36,975 134 487 0
2020-04-01 13:15:48 GMT 57.457985 35.458374 36,975 134 486 128
2020-04-01 13:15:40 GMT 57.473328 35.429363 36,975 134 487 -64
2020-04-01 13:15:29 GMT 57.488525 35.400436 36,975 134 485 64
2020-04-01 13:15:19 GMT 57.504364 35.370312 36,975 134 485 -64
2020-04-01 13:15:08 GMT 57.520615 35.339500 37,000 134 485 -128
2020-04-01 13:14:59 GMT 57.536377 35.309704 37,000 134 485 0
2020-04-01 13:14:48 GMT 57.553345 35.277531 37,000 134 484 64
2020-04-01 13:14:38 GMT 57.569897 35.246265 36,975 134 484 0
2020-04-01 13:14:33 GMT 57.575527 35.235634 37,000 134 484 -64
2020-04-01 13:14:27 GMT 57.586121 35.215645 37,000 134 484 -128
2020-04-01 13:14:21 GMT 57.594662 35.199486 37,025 134 483 -64
2020-04-01 13:14:17 GMT 57.601692 35.186195 37,025 134 482 64
2020-04-01 13:14:10 GMT 57.613377 35.163960 37,000 134 482 128
2020-04-01 13:14:06 GMT 57.617981 35.155132 37,000 134 483 64
2020-04-01 13:14:01 GMT 57.625580 35.140629 37,000 134 484 -64
2020-04-01 13:13:57 GMT 57.634232 35.124001 37,000 134 485 -192
2020-04-01 13:13:46 GMT 57.649918 35.093700 37,050 133 484 -64
2020-04-01 13:13:41 GMT 57.659508 35.075092 37,050 133 483 64
2020-04-01 13:13:35 GMT 57.665771 35.062950 37,050 133 483 64
2020-04-01 13:13:28 GMT 57.677105 35.040894 37,025 133 483 0
2020-04-01 13:13:25 GMT 57.681885 35.031796 37,025 134 484 0
2020-04-01 13:13:16 GMT 57.698288 35.001999 37,025 137 484 -64
2020-04-01 13:13:05 GMT 57.714798 34.974289 37,050 139 483 0
2020-04-01 13:13:01 GMT 57.722820 34.961510 37,050 140 482 0
2020-04-01 13:12:54 GMT 57.732643 34.946411 37,050 141 482 64
2020-04-01 13:12:44 GMT 57.750378 34.920776 37,000 143 482 128
2020-04-01 13:12:39 GMT 57.759502 34.908142 37,000 143 482 64
2020-04-01 13:12:35 GMT 57.768906 34.895237 37,000 143 482 64
2020-04-01 13:12:31 GMT 57.776642 34.884605 37,000 143 482 64
2020-04-01 13:12:24 GMT 57.786736 34.870697 36,975 143 481 64
2020-04-01 13:12:19 GMT 57.795162 34.859161 36,975 143 481 64
2020-04-01 13:12:16 GMT 57.802231 34.849430 36,975 143 480 64
2020-04-01 13:12:13 GMT 57.805664 34.844734 36,975 143 480 64
2020-04-01 13:12:10 GMT 57.812943 34.834633 36,975 143 480 0
2020-04-01 13:12:03 GMT 57.824444 34.818787 36,975 143 480 -64
2020-04-01 13:11:59 GMT 57.832497 34.807709 36,950 143 480 64
2020-04-01 13:11:53 GMT 57.843159 34.792877 36,950 143 480 128
2020-04-01 13:11:49 GMT 57.850094 34.783264 36,950 143 479 64
2020-04-01 13:11:42 GMT 57.861313 34.767700 36,950 143 479 0
2020-04-01 13:11:39 GMT 57.867691 34.758820 36,950 143 480 -128
2020-04-01 13:11:32 GMT 57.879097 34.742889 36,975 143 480 -64
2020-04-01 13:11:25 GMT 57.892273 34.724506 36,975 143 479 0
2020-04-01 13:11:22 GMT 57.896347 34.718834 36,975 143 478 0
2020-04-01 13:11:11 GMT 57.919189 34.686939 36,975 143 478 -64
2020-04-01 13:11:02 GMT 57.932327 34.668686 36,975 143 477 0
2020-04-01 13:10:59 GMT 57.940659 34.657169 36,975 143 477 0
2020-04-01 13:10:52 GMT 57.950729 34.643082 36,975 143 477 0
2020-04-01 13:10:47 GMT 57.959911 34.630463 36,975 143 477 0
2020-04-01 13:10:39 GMT 57.974297 34.610596 37,000 143 477 -64
2020-04-01 13:10:29 GMT 58.005615 34.567242 37,000 143 477 0
2020-04-01 13:10:21 GMT 58.005615 34.567242 37,000 143 477 0
2020-04-01 13:10:15 GMT 58.017822 34.550446 37,000 143 478 -64
2020-04-01 13:10:11 GMT 58.023926 34.541988 37,000 143 478 -64
2020-04-01 13:10:04 GMT 58.035507 34.526043 37,000 143 478 64
2020-04-01 13:10:00 GMT 58.042728 34.516113 37,000 143 478 64
2020-04-01 13:09:55 GMT 58.051617 34.503845 37,000 143 478 64
2020-04-01 13:09:50 GMT 58.060455 34.491753 37,000 143 478 64
2020-04-01 13:09:45 GMT 58.069382 34.479527 36,975 143 478 0
2020-04-01 13:09:41 GMT 58.078125 34.467480 37,000 143 480 -64
2020-04-01 13:09:35 GMT 58.089386 34.451973 37,000 143 479 -64
2020-04-01 13:09:30 GMT 58.096527 34.442051 37,000 143 479 0
2020-04-01 13:09:19 GMT 58.115341 34.415646 37,000 142 480 -64
2020-04-01 13:09:09 GMT 58.132736 34.390308 37,000 141 480 128
2020-04-01 13:09:00 GMT 58.150452 34.363815 36,975 141 481 128
2020-04-01 13:08:49 GMT 58.168606 34.336304 36,975 141 483 -128
2020-04-01 13:08:38 GMT 58.186752 34.308796 37,000 141 482 -64
2020-04-01 13:08:28 GMT 58.204357 34.281921 37,025 141 482 -64
2020-04-01 13:08:23 GMT 58.214039 34.267090 37,025 141 483 0
2020-04-01 13:08:19 GMT 58.221348 34.256012 37,025 141 483 0
2020-04-01 13:08:12 GMT 58.233215 34.237827 37,000 141 483 0
2020-04-01 13:08:01 GMT 58.251884 34.209229 37,000 141 484 -64
2020-04-01 13:07:57 GMT 58.258804 34.198757 37,025 141 484 -64
2020-04-01 13:07:51 GMT 58.270981 34.180241 37,025 141 484 64
2020-04-01 13:07:47 GMT 58.276382 34.172001 37,000 141 484 128
2020-04-01 13:07:38 GMT 58.293690 34.145508 37,000 141 485 0
2020-04-01 13:07:29 GMT 58.310349 34.119991 37,000 141 486 -64
2020-04-01 13:07:25 GMT 58.314194 34.114056 37,000 141 486 0
2020-04-01 13:07:17 GMT 58.328842 34.091553 37,000 141 486 64
2020-04-01 13:07:08 GMT 58.344620 34.067322 36,975 141 486 128
2020-04-01 13:07:02 GMT 58.354980 34.051327 36,975 141 486 128
2020-04-01 13:06:59 GMT 58.360245 34.043262 36,950 140 487 64
2020-04-01 13:06:56 GMT 58.365463 34.035202 36,950 141 487 64
2020-04-01 13:06:50 GMT 58.377949 34.016052 36,950 141 487 64
2020-04-01 13:06:45 GMT 58.384792 34.005524 36,950 141 487 0
2020-04-01 13:06:37 GMT 58.397324 33.986382 36,975 141 486 -64
2020-04-01 13:06:34 GMT 58.403229 33.977345 36,975 141 486 -64
2020-04-01 13:06:29 GMT 58.412956 33.962402 36,975 141 486 -64
2020-04-01 13:06:25 GMT 58.419754 33.951965 37,000 141 486 -64
2020-04-01 13:06:19 GMT 58.431702 33.933578 37,000 141 486 -128
2020-04-01 13:06:15 GMT 58.436920 33.925514 37,000 141 486 -128
2020-04-01 13:06:08 GMT 58.448959 33.906998 37,025 141 486 -64
2020-04-01 13:06:04 GMT 58.455231 33.897343 37,025 141 486 -128
2020-04-01 13:05:57 GMT 58.468212 33.877167 37,025 141 486 -128
2020-04-01 13:05:54 GMT 58.472488 33.870583 37,025 141 486 -64
2020-04-01 13:05:48 GMT 58.485485 33.850525 37,025 141 487 0
2020-04-01 13:05:43 GMT 58.492283 33.840088 37,025 141 487 0
2020-04-01 13:05:37 GMT 58.502941 33.823608 37,025 141 487 0
2020-04-01 13:05:34 GMT 58.508202 33.815552 37,025 141 487 64
2020-04-01 13:05:23 GMT 58.527103 33.786346 37,025 140 487 64
2020-04-01 13:05:17 GMT 58.539734 33.766659 37,025 140 489 64
2020-04-01 13:05:12 GMT 58.545818 33.757324 37,000 140 489 -64
2020-04-01 13:05:05 GMT 58.558247 33.738007 37,050 140 488 128
2020-04-01 13:05:02 GMT 58.563766 33.729446 37,050 141 489 -128
2020-04-01 13:04:55 GMT 58.575714 33.711018 37,050 141 488 64
2020-04-01 13:04:52 GMT 58.581059 33.702759 37,050 140 487 128
2020-04-01 13:04:45 GMT 58.593567 33.683372 37,025 141 488 128
2020-04-01 13:04:41 GMT 58.600800 33.672298 37,000 141 489 64
2020-04-01 13:04:32 GMT 58.616531 33.647919 37,000 141 490 64
2020-04-01 13:04:25 GMT 58.629501 33.627911 37,000 141 490 128
2020-04-01 13:04:21 GMT 58.635941 33.618073 37,000 141 490 128
2020-04-01 13:04:14 GMT 58.647858 33.599735 36,975 141 490 64
2020-04-01 13:04:11 GMT 58.652885 33.592072 36,975 141 490 0
2020-04-01 13:04:04 GMT 58.666435 33.571198 37,000 141 490 0
2020-04-01 13:04:01 GMT 58.670929 33.564297 37,000 141 489 0
2020-04-01 13:03:53 GMT 58.685669 33.541435 37,025 140 487 64
2020-04-01 13:03:50 GMT 58.691292 33.532562 37,025 140 486 64
2020-04-01 13:03:44 GMT 58.706699 33.508118 37,000 140 487 -64
2020-04-01 13:03:31 GMT 58.724121 33.479771 37,000 139 489 -128
2020-04-01 13:03:21 GMT 58.741196 33.451721 37,025 139 489 -64
2020-04-01 13:03:10 GMT 58.759167 33.422150 37,025 139 487 0
2020-04-01 13:03:00 GMT 58.776489 33.393387 37,000 139 489 0
2020-04-01 13:02:52 GMT 58.791046 33.369289 37,000 139 491 -64
2020-04-01 13:02:39 GMT 58.812561 33.333759 37,000 139 492 -64
2020-04-01 13:02:29 GMT 58.829136 33.306244 37,000 139 489 192
2020-04-01 13:02:19 GMT 58.847031 33.276611 36,975 139 489 -64
2020-04-01 13:02:09 GMT 58.864197 33.248383 37,000 139 487 -64
2020-04-01 13:01:58 GMT 58.882553 33.218170 37,000 139 480 448
2020-04-01 13:01:48 GMT 58.898590 33.191589 36,950 139 479 64
2020-04-01 13:01:38 GMT 58.916046 33.162609 36,950 139 480 64
2020-04-01 13:01:27 GMT 58.934418 33.131927 36,950 139 481 -128
2020-04-01 13:01:17 GMT 58.951145 33.103985 36,975 139 482 -128
2020-04-01 13:01:07 GMT 58.967606 33.076538 37,000 139 482 0
2020-04-01 13:00:57 GMT 58.984589 33.047974 37,000 139 483 0
2020-04-01 13:00:48 GMT 59.001114 33.020142 37,000 139 486 -64
2020-04-01 13:00:36 GMT 59.021484 32.985992 37,000 139 487 -64
2020-04-01 13:00:26 GMT 59.037918 32.958160 37,000 138 488 0
2020-04-01 13:00:16 GMT 59.054077 32.930878 37,000 139 491 -64
2020-04-01 13:00:05 GMT 59.072617 32.899658 37,000 139 494 64
2020-04-01 12:59:56 GMT 59.089359 32.871284 37,000 138 494 -64
2020-04-01 12:59:46 GMT 59.107983 32.839745 37,000 138 498 -64
2020-04-01 12:59:35 GMT 59.125214 32.810577 37,025 138 498 0
2020-04-01 12:59:24 GMT 59.143616 32.779358 37,000 138 499 64
2020-04-01 12:59:14 GMT 59.162979 32.746582 36,975 139 501 64
2020-04-01 12:59:04 GMT 59.179596 32.718384 37,000 138 503 -64
2020-04-01 12:58:53 GMT 59.197998 32.687164 37,000 138 501 64
2020-04-01 12:58:44 GMT 59.215576 32.657043 36,975 138 503 -64
2020-04-01 12:58:33 GMT 59.235306 32.623352 37,025 138 502 64
2020-04-01 12:58:21 GMT 59.254063 32.591038 37,000 138 498 128
2020-04-01 12:58:11 GMT 59.271103 32.561581 36,950 138 499 128
2020-04-01 12:58:01 GMT 59.289368 32.530151 36,850 138 499 1024
2020-04-01 12:57:53 GMT 59.302505 32.507629 36,725 138 498 1024
2020-04-01 12:57:50 GMT 59.307274 32.499454 36,675 138 498 1024
2020-04-01 12:57:40 GMT 59.326355 32.466888 36,500 138 496 960
2020-04-01 12:57:33 GMT 59.337345 32.448215 36,400 139 497 960
2020-04-01 12:57:29 GMT 59.344391 32.436310 36,325 139 497 1024
2020-04-01 12:57:22 GMT 59.355358 32.417530 36,200 138 498 1024
2020-04-01 12:57:19 GMT 59.361366 32.407112 36,150 137 499 1024
2020-04-01 12:57:12 GMT 59.372452 32.387054 36,050 136 499 1024
2020-04-01 12:57:09 GMT 59.378769 32.375244 35,975 135 499 1024
2020-04-01 12:57:03 GMT 59.396233 32.341003 35,875 134 497 1280
2020-04-01 12:56:59 GMT 59.396233 32.341003 35,775 133 497 1472
2020-04-01 12:56:52 GMT 59.406052 32.320496 35,625 132 496 1472
2020-04-01 12:56:48 GMT 59.411591 32.308594 35,525 131 496 1472
2020-04-01 12:56:42 GMT 59.421371 32.286831 35,350 130 496 1856
2020-04-01 12:56:37 GMT 59.427567 32.272614 35,225 130 497 2240
2020-04-01 12:56:31 GMT 59.437225 32.249725 34,950 128 499 2624
2020-04-01 12:56:27 GMT 59.442261 32.237366 34,775 128 500 2496
2020-04-01 12:56:21 GMT 59.451279 32.214386 34,550 126 502 1856
2020-04-01 12:56:18 GMT 59.456890 32.199509 34,425 126 502 1792
2020-04-01 12:56:11 GMT 59.465332 32.176392 34,200 124 504 2048
2020-04-01 12:56:07 GMT 59.470505 32.161743 34,100 124 504 1728
2020-04-01 12:56:01 GMT 59.478165 32.139084 33,950 122 504 1152
2020-04-01 12:55:57 GMT 59.483368 32.123108 33,875 122 503 1216
2020-04-01 12:55:50 GMT 59.490921 32.098927 33,725 120 501 1664
2020-04-01 12:55:47 GMT 59.495819 32.082642 33,625 120 501 1856
2020-04-01 12:55:40 GMT 59.502884 32.058392 33,400 118 501 1984
2020-04-01 12:55:36 GMT 59.507904 32.040161 33,275 118 501 2048
2020-04-01 12:55:30 GMT 59.514103 32.017002 33,050 117 501 1856
2020-04-01 12:55:26 GMT 59.518433 32.000153 32,950 116 501 1600
2020-04-01 12:55:20 GMT 59.524113 31.977034 32,800 115 500 1536
2020-04-01 12:55:16 GMT 59.528954 31.956482 32,675 114 499 1664
2020-04-01 12:55:10 GMT 59.533951 31.934235 32,500 113 499 2176
2020-04-01 12:55:05 GMT 59.538033 31.915283 32,350 112 499 2368
2020-04-01 12:54:59 GMT 59.543152 31.890469 32,075 111 500 2432
2020-04-01 12:54:55 GMT 59.546970 31.870865 31,925 110 501 2304
2020-04-01 12:54:49 GMT 59.554916 31.826477 31,700 109 501 1728
2020-04-01 12:54:44 GMT 59.554916 31.826477 31,600 108 500 1856
2020-04-01 12:54:39 GMT 59.558899 31.802216 31,375 107 501 2240
2020-04-01 12:54:35 GMT 59.562012 31.782166 31,225 106 501 2112
2020-04-01 12:54:28 GMT 59.565498 31.757875 31,050 104 500 1600
2020-04-01 12:54:24 GMT 59.568150 31.738081 30,950 104 499 1472
2020-04-01 12:54:18 GMT 59.573830 31.689590 30,800 102 497 1216
2020-04-01 12:54:14 GMT 59.573830 31.689590 30,725 101 495 1152
2020-04-01 12:54:08 GMT 59.576111 31.667358 30,600 100 492 1152
2020-04-01 12:54:03 GMT 59.578262 31.644836 30,525 100 490 1216
2020-04-01 12:53:58 GMT 59.580299 31.623672 30,375 100 489 1536
2020-04-01 12:53:55 GMT 59.581978 31.606152 30,300 100 488 1600
2020-04-01 12:53:52 GMT 59.582863 31.596964 30,250 100 488 1664
2020-04-01 12:53:48 GMT 59.584583 31.579063 30,100 100 487 1792
2020-04-01 12:53:45 GMT 59.585979 31.564762 30,025 100 487 1792
2020-04-01 12:53:37 GMT 59.589146 31.531614 29,775 100 486 1792
2020-04-01 12:53:33 GMT 59.591125 31.511078 29,650 100 485 1600
2020-04-01 12:53:27 GMT 59.593185 31.489471 29,525 100 483 1664
2020-04-01 12:53:22 GMT 59.595291 31.467211 29,375 100 482 2048
2020-04-01 12:53:17 GMT 59.597477 31.444292 29,150 100 482 2496
2020-04-01 12:53:12 GMT 59.599525 31.422319 28,950 100 482 2624
2020-04-01 12:53:07 GMT 59.603764 31.377899 28,725 100 483 2240
2020-04-01 12:53:01 GMT 59.603764 31.377899 28,575 100 482 1920
2020-04-01 12:52:56 GMT 59.605858 31.355928 28,375 100 481 1792
2020-04-01 12:52:52 GMT 59.607834 31.335022 28,275 100 480 1728
2020-04-01 12:52:46 GMT 59.609909 31.312929 28,100 100 479 2112
2020-04-01 12:52:41 GMT 59.612141 31.289347 27,900 100 477 2176
2020-04-01 12:52:36 GMT 59.614052 31.268795 27,700 100 477 2112
2020-04-01 12:52:30 GMT 59.616283 31.244928 27,550 100 476 2048
2020-04-01 12:52:25 GMT 59.618286 31.223618 27,350 100 474 2240
2020-04-01 12:52:20 GMT 59.620663 31.197668 27,125 100 474 2560
2020-04-01 12:52:16 GMT 59.622105 31.182325 26,950 100 474 2624
2020-04-01 12:52:12 GMT 59.624062 31.161015 26,900 100 475 2624
2020-04-01 12:52:09 GMT 59.624805 31.152966 26,650 100 475 2432
2020-04-01 12:52:05 GMT 59.626202 31.138096 26,500 100 475 2240
2020-04-01 12:52:02 GMT 59.627598 31.122751 26,375 100 474 2112
2020-04-01 12:51:59 GMT 59.628761 31.109966 26,275 100 473 1920
2020-04-01 12:51:55 GMT 59.630157 31.094719 26,150 100 471 1536
2020-04-01 12:51:49 GMT 59.632599 31.067413 26,050 100 468 1280
2020-04-01 12:51:45 GMT 59.634155 31.050659 25,925 100 465 1728
2020-04-01 12:51:42 GMT 59.635326 31.037607 25,925 100 465 1728
2020-04-01 12:51:39 GMT 59.636581 31.023651 25,750 100 463 2176
2020-04-01 12:51:35 GMT 59.637863 31.009552 25,600 100 462 2432
2020-04-01 12:51:31 GMT 59.639420 30.992157 25,550 100 462 2496
2020-04-01 12:51:28 GMT 59.640354 30.982014 25,325 100 461 2432
2020-04-01 12:51:24 GMT 59.642990 30.952423 25,125 100 460 2368
2020-04-01 12:51:20 GMT 59.642990 30.952423 25,050 100 460 2304
2020-04-01 12:51:17 GMT 59.644318 30.938049 24,900 100 459 2304
2020-04-01 12:51:14 GMT 59.645691 30.922852 24,725 100 457 2304
2020-04-01 12:51:08 GMT 59.648071 30.896576 24,525 100 456 2176
2020-04-01 12:51:04 GMT 59.649338 30.882475 24,325 100 454 1984
2020-04-01 12:50:57 GMT 59.651871 30.854187 24,175 100 451 2048
2020-04-01 12:50:53 GMT 59.653152 30.839996 24,000 99 449 2048
2020-04-01 12:50:50 GMT 59.654709 30.822327 23,900 100 448 2112
2020-04-01 12:50:47 GMT 59.655483 30.813999 23,825 100 447 2176
2020-04-01 12:50:44 GMT 59.656677 30.800537 23,700 99 446 2240
2020-04-01 12:50:40 GMT 59.658691 30.777740 23,475 99 443 2368
2020-04-01 12:50:36 GMT 59.659206 30.772041 23,425 99 443 2368
2020-04-01 12:50:32 GMT 59.660789 30.754047 23,300 100 442 2432
2020-04-01 12:50:27 GMT 59.662838 30.731129 23,000 99 440 2624
2020-04-01 12:50:22 GMT 59.664322 30.714752 22,750 99 438 2752
2020-04-01 12:50:16 GMT 59.666336 30.691498 22,550 99 438 2688
2020-04-01 12:50:11 GMT 59.668007 30.672787 22,350 99 437 2368
2020-04-01 12:50:07 GMT 59.669724 30.652954 22,175 99 434 1984
2020-04-01 12:50:01 GMT 59.671600 30.631531 22,075 99 432 2048
2020-04-01 12:49:58 GMT 59.672752 30.618612 21,875 99 429 2432
2020-04-01 12:49:51 GMT 59.676476 30.575235 21,500 99 425 3136
2020-04-01 12:49:47 GMT 59.676476 30.575235 21,325 99 425 3328
2020-04-01 12:49:41 GMT 59.678200 30.554495 20,925 99 425 3520
2020-04-01 12:49:36 GMT 59.679642 30.537352 20,925 99 425 3520
2020-04-01 12:49:31 GMT 59.681458 30.515852 20,425 99 425 3392
2020-04-01 12:49:27 GMT 59.682816 30.499146 20,175 99 425 3264
2020-04-01 12:49:20 GMT 59.684692 30.475800 19,800 98 424 2688
2020-04-01 12:49:16 GMT 59.685837 30.461243 19,700 98 423 2560
2020-04-01 12:49:11 GMT 59.687347 30.442566 19,475 98 421 2560
2020-04-01 12:49:07 GMT 59.688904 30.422882 19,350 98 419 2752
2020-04-01 12:49:00 GMT 59.690781 30.399170 18,925 98 416 3072
2020-04-01 12:48:56 GMT 59.691978 30.383543 18,725 98 415 3072
2020-04-01 12:48:49 GMT 59.693985 30.358337 18,375 98 413 2944
2020-04-01 12:48:45 GMT 59.695286 30.341776 18,175 99 412 2816
2020-04-01 12:48:39 GMT 59.696960 30.321259 17,850 99 408 2944
2020-04-01 12:48:36 GMT 59.697987 30.308437 17,850 99 408 2944
2020-04-01 12:48:30 GMT 59.699982 30.284454 17,375 99 406 3520
2020-04-01 12:48:26 GMT 59.701035 30.271637 17,150 99 406 3584
2020-04-01 12:48:20 GMT 59.702686 30.251707 16,850 99 406 3264
2020-04-01 12:48:16 GMT 59.704010 30.235474 16,600 99 404 3008
2020-04-01 12:48:09 GMT 59.706207 30.209747 16,250 99 400 2880
2020-04-01 12:48:06 GMT 59.707352 30.197113 16,100 99 399 2752
2020-04-01 12:48:00 GMT 59.709045 30.178436 15,875 100 395 2176
2020-04-01 12:47:55 GMT 59.710693 30.160767 15,775 100 391 2048
2020-04-01 12:47:50 GMT 59.712555 30.142508 15,350 101 383 2816
2020-04-01 12:47:44 GMT 59.714584 30.123138 15,275 101 382 2880
2020-04-01 12:47:39 GMT 59.716282 30.107275 14,975 102 378 2816
2020-04-01 12:47:35 GMT 59.718475 30.088623 14,800 103 375 3072
2020-04-01 12:47:29 GMT 59.723354 30.055658 14,425 107 373 3136
2020-04-01 12:47:24 GMT 59.723354 30.055658 14,275 110 371 3328
2020-04-01 12:47:17 GMT 59.727314 30.035769 13,975 112 370 3648
2020-04-01 12:47:14 GMT 59.729874 30.024405 13,650 114 369 3776
2020-04-01 12:47:08 GMT 59.735733 30.003571 13,200 126 369 3584
2020-04-01 12:46:58 GMT 59.744476 29.982056 12,700 135 366 3776
2020-04-01 12:46:48 GMT 59.758026 29.959900 12,075 147 362 2880
2020-04-01 12:46:38 GMT 59.773087 29.944885 11,650 159 347 2048
2020-04-01 12:46:27 GMT 59.789520 29.937836 11,375 181 311 1728
2020-04-01 12:46:17 GMT 59.804169 29.939758 11,025 192 312 2176
2020-04-01 12:46:02 GMT 59.821655 29.955322 10,650 209 284 2496
2020-04-01 12:45:57 GMT 59.826237 29.962843 10,250 224 259 2432
2020-04-01 12:45:47 GMT 59.834148 29.980457 9,825 235 239 2944
2020-04-01 12:45:36 GMT 59.839642 29.999779 9,250 251 226 3584
2020-04-01 12:45:26 GMT 59.841831 30.019953 8,625 268 217 3968
2020-04-01 12:45:16 GMT 59.840790 30.040649 7,900 286 212 4160
2020-04-01 12:45:06 GMT 59.838154 30.059067 7,200 287 210 4480
2020-04-01 12:44:55 GMT 59.835079 30.079809 6,350 287 210 4416
2020-04-01 12:44:45 GMT 59.832474 30.097046 5,700 287 210 3648

Making use of Plane Finder data

You are free to use the raw flight data, aircraft information and images provided in this report for your own purposes provided the data is correctly attributed to Plane Finder. We ask that you please credit Plane Finder and link to planefinder.net in close proximity to the content.

Optionally one of the following logos (no smaller then 150x24px) can be used and must link to planefinder.net

Embedding the Plane Finder map

You are welcome to embed the Plane Finder playback map on your website to offer visitors a more interactive experience. We suggest using the following HTML code:

<iframe src="//planefinder.net/data/report/SU6561-VP-BWG-7700-squawk-2020-04-01/map" width="800" height="600" seamless="seamless"></iframe>

Where our data comes from

Plane Finder has a global network of data feeds and antenna radars that receive data broadcast directly from aircraft. The primary technologies used are ADS-B and MLAT. We also show feeds from the FAA and a FLARM glider feed.

Click here to find out more about the Plane Finder network.

How we collect our data